<?xml version="1.0" encoding="UTF-8" standalone="no" ?>
<gpx xmlns="http://www.topografix.com/GPX/1/1" xmlns:xsi="http://www.w3.org/2001/XMLSchema-instance" xsi:schemaLocation="http://www.topografix.com/GPX/1/1 http://www.topografix.com/GPX/1/1/gpx.xsd" version="1.1" creator="VisuGPX - https://www.visugpx.com">
  <metadata>
    <name>tour du barrage de lavalette</name>
    <desc><![CDATA[très belle balade de jp et jo quelques bons chemins pour de bons galops grosse partie ombragée petit sentier avec passage ruisseau petit  pont bois très solide a mi parcours aire de pique nique grand parking au début de balade prévoir une bonne  journée]]></desc>
  </metadata>
  <trk>
    <name><![CDATA[10-SEPT-15 04:07:02 PM]]></name>
    <trkseg>
      <trkpt lat="45.15451" lon="4.21995">
        <ele>843.69</ele>
        <time>2015-09-10T09:33:58Z</time>
      </trkpt>
      <trkpt lat="45.15452" lon="4.21997">
        <ele>843.69</ele>
        <time>2015-09-10T09:34:23Z</time>
      </trkpt>
      <trkpt lat="45.15452" lon="4.21997">
        <ele>842.73</ele>
        <time>2015-09-10T09:34:51Z</time>
      </trkpt>
      <trkpt lat="45.15451" lon="4.21997">
        <ele>842.73</ele>
        <time>2015-09-10T09:35:24Z</time>
      </trkpt>
      <trkpt lat="45.1545" lon="4.21997">
        <ele>842.73</ele>
        <time>2015-09-10T09:35:25Z</time>
      </trkpt>
      <trkpt lat="45.1544" lon="4.21995">
        <ele>842.25</ele>
        <time>2015-09-10T09:35:41Z</time>
      </trkpt>
      <trkpt lat="45.1544" lon="4.21995">
        <ele>842.73</ele>
        <time>2015-09-10T09:35:43Z</time>
      </trkpt>
      <trkpt lat="45.15437" lon="4.21995">
        <ele>842.25</ele>
        <time>2015-09-10T09:35:46Z</time>
      </trkpt>
      <trkpt lat="45.15432" lon="4.21993">
        <ele>842.25</ele>
        <time>2015-09-10T09:35:51Z</time>
      </trkpt>
      <trkpt lat="45.15419" lon="4.2197">
        <ele>840.33</ele>
        <time>2015-09-10T09:36:10Z</time>
      </trkpt>
      <trkpt lat="45.15407" lon="4.21947">
        <ele>838.41</ele>
        <time>2015-09-10T09:36:28Z</time>
      </trkpt>
      <trkpt lat="45.15404" lon="4.21939">
        <ele>837.93</ele>
        <time>2015-09-10T09:36:34Z</time>
      </trkpt>
      <trkpt lat="45.15392" lon="4.21918">
        <ele>836.96</ele>
        <time>2015-09-10T09:36:53Z</time>
      </trkpt>
      <trkpt lat="45.15378" lon="4.21885">
        <ele>836.48</ele>
        <time>2015-09-10T09:37:14Z</time>
      </trkpt>
      <trkpt lat="45.15379" lon="4.2188">
        <ele>836.48</ele>
        <time>2015-09-10T09:37:29Z</time>
      </trkpt>
      <trkpt lat="45.15379" lon="4.21881">
        <ele>835.52</ele>
        <time>2015-09-10T09:37:49Z</time>
      </trkpt>
      <trkpt lat="45.15375" lon="4.21882">
        <ele>834.56</ele>
        <time>2015-09-10T09:37:55Z</time>
      </trkpt>
      <trkpt lat="45.1537" lon="4.21878">
        <ele>834.08</ele>
        <time>2015-09-10T09:37:59Z</time>
      </trkpt>
      <trkpt lat="45.15353" lon="4.21857">
        <ele>831.68</ele>
        <time>2015-09-10T09:38:14Z</time>
      </trkpt>
      <trkpt lat="45.15336" lon="4.21837">
        <ele>828.79</ele>
        <time>2015-09-10T09:38:30Z</time>
      </trkpt>
      <trkpt lat="45.15335" lon="4.21836">
        <ele>828.31</ele>
        <time>2015-09-10T09:38:45Z</time>
      </trkpt>
      <trkpt lat="45.15335" lon="4.21836">
        <ele>828.31</ele>
        <time>2015-09-10T09:38:59Z</time>
      </trkpt>
      <trkpt lat="45.1533" lon="4.21833">
        <ele>828.79</ele>
        <time>2015-09-10T09:39:23Z</time>
      </trkpt>
      <trkpt lat="45.15311" lon="4.21817">
        <ele>826.87</ele>
        <time>2015-09-10T09:39:38Z</time>
      </trkpt>
      <trkpt lat="45.15292" lon="4.21801">
        <ele>824.47</ele>
        <time>2015-09-10T09:39:53Z</time>
      </trkpt>
      <trkpt lat="45.15284" lon="4.21796">
        <ele>823.99</ele>
        <time>2015-09-10T09:40:00Z</time>
      </trkpt>
      <trkpt lat="45.1528" lon="4.21795">
        <ele>823.51</ele>
        <time>2015-09-10T09:40:04Z</time>
      </trkpt>
      <trkpt lat="45.15268" lon="4.2179">
        <ele>819.66</ele>
        <time>2015-09-10T09:40:18Z</time>
      </trkpt>
      <trkpt lat="45.1527" lon="4.21792">
        <ele>819.66</ele>
        <time>2015-09-10T09:40:20Z</time>
      </trkpt>
      <trkpt lat="45.15271" lon="4.21793">
        <ele>820.14</ele>
        <time>2015-09-10T09:40:22Z</time>
      </trkpt>
      <trkpt lat="45.15273" lon="4.21799">
        <ele>820.62</ele>
        <time>2015-09-10T09:40:26Z</time>
      </trkpt>
      <trkpt lat="45.15271" lon="4.21805">
        <ele>821.58</ele>
        <time>2015-09-10T09:40:30Z</time>
      </trkpt>
      <trkpt lat="45.15254" lon="4.21829">
        <ele>821.58</ele>
        <time>2015-09-10T09:40:45Z</time>
      </trkpt>
      <trkpt lat="45.15247" lon="4.21836">
        <ele>821.1</ele>
        <time>2015-09-10T09:40:50Z</time>
      </trkpt>
      <trkpt lat="45.15237" lon="4.21876">
        <ele>818.22</ele>
        <time>2015-09-10T09:41:11Z</time>
      </trkpt>
      <trkpt lat="45.15226" lon="4.21905">
        <ele>816.78</ele>
        <time>2015-09-10T09:41:27Z</time>
      </trkpt>
      <trkpt lat="45.1521" lon="4.2194">
        <ele>814.85</ele>
        <time>2015-09-10T09:41:49Z</time>
      </trkpt>
      <trkpt lat="45.15193" lon="4.21951">
        <ele>815.34</ele>
        <time>2015-09-10T09:42:03Z</time>
      </trkpt>
      <trkpt lat="45.15165" lon="4.21932">
        <ele>813.89</ele>
        <time>2015-09-10T09:42:20Z</time>
      </trkpt>
      <trkpt lat="45.15149" lon="4.21924">
        <ele>811.97</ele>
        <time>2015-09-10T09:42:32Z</time>
      </trkpt>
      <trkpt lat="45.15124" lon="4.21939">
        <ele>808.13</ele>
        <time>2015-09-10T09:42:49Z</time>
      </trkpt>
      <trkpt lat="45.15124" lon="4.21943">
        <ele>808.13</ele>
        <time>2015-09-10T09:42:51Z</time>
      </trkpt>
      <trkpt lat="45.1512" lon="4.21981">
        <ele>807.64</ele>
        <time>2015-09-10T09:43:11Z</time>
      </trkpt>
      <trkpt lat="45.1512" lon="4.22011">
        <ele>808.13</ele>
        <time>2015-09-10T09:43:28Z</time>
      </trkpt>
      <trkpt lat="45.15112" lon="4.22058">
        <ele>808.61</ele>
        <time>2015-09-10T09:43:48Z</time>
      </trkpt>
      <trkpt lat="45.15093" lon="4.22088">
        <ele>810.05</ele>
        <time>2015-09-10T09:44:04Z</time>
      </trkpt>
      <trkpt lat="45.15078" lon="4.2211">
        <ele>804.28</ele>
        <time>2015-09-10T09:44:20Z</time>
      </trkpt>
      <trkpt lat="45.15056" lon="4.22153">
        <ele>800.92</ele>
        <time>2015-09-10T09:44:45Z</time>
      </trkpt>
      <trkpt lat="45.15032" lon="4.22185">
        <ele>800.92</ele>
        <time>2015-09-10T09:45:07Z</time>
      </trkpt>
      <trkpt lat="45.15016" lon="4.22222">
        <ele>803.8</ele>
        <time>2015-09-10T09:45:27Z</time>
      </trkpt>
      <trkpt lat="45.15004" lon="4.22273">
        <ele>804.28</ele>
        <time>2015-09-10T09:45:53Z</time>
      </trkpt>
      <trkpt lat="45.15003" lon="4.2229">
        <ele>802.84</ele>
        <time>2015-09-10T09:46:02Z</time>
      </trkpt>
      <trkpt lat="45.15021" lon="4.22331">
        <ele>794.67</ele>
        <time>2015-09-10T09:46:24Z</time>
      </trkpt>
      <trkpt lat="45.15037" lon="4.22357">
        <ele>793.71</ele>
        <time>2015-09-10T09:46:42Z</time>
      </trkpt>
      <trkpt lat="45.1505" lon="4.22366">
        <ele>792.74</ele>
        <time>2015-09-10T09:46:57Z</time>
      </trkpt>
      <trkpt lat="45.15091" lon="4.22367">
        <ele>807.16</ele>
        <time>2015-09-10T09:47:21Z</time>
      </trkpt>
      <trkpt lat="45.15096" lon="4.22367">
        <ele>808.61</ele>
        <time>2015-09-10T09:47:24Z</time>
      </trkpt>
      <trkpt lat="45.15101" lon="4.22368">
        <ele>810.53</ele>
        <time>2015-09-10T09:47:28Z</time>
      </trkpt>
      <trkpt lat="45.15129" lon="4.22372">
        <ele>818.7</ele>
        <time>2015-09-10T09:47:46Z</time>
      </trkpt>
      <trkpt lat="45.15138" lon="4.22384">
        <ele>817.74</ele>
        <time>2015-09-10T09:47:57Z</time>
      </trkpt>
      <trkpt lat="45.15163" lon="4.22427">
        <ele>814.85</ele>
        <time>2015-09-10T09:48:22Z</time>
      </trkpt>
      <trkpt lat="45.15168" lon="4.22438">
        <ele>816.3</ele>
        <time>2015-09-10T09:48:29Z</time>
      </trkpt>
      <trkpt lat="45.15169" lon="4.22444">
        <ele>816.78</ele>
        <time>2015-09-10T09:48:33Z</time>
      </trkpt>
      <trkpt lat="45.15172" lon="4.22455">
        <ele>817.26</ele>
        <time>2015-09-10T09:48:38Z</time>
      </trkpt>
      <trkpt lat="45.15174" lon="4.22459">
        <ele>818.22</ele>
        <time>2015-09-10T09:48:40Z</time>
      </trkpt>
      <trkpt lat="45.15178" lon="4.22467">
        <ele>818.7</ele>
        <time>2015-09-10T09:48:44Z</time>
      </trkpt>
      <trkpt lat="45.1519" lon="4.22499">
        <ele>820.14</ele>
        <time>2015-09-10T09:49:01Z</time>
      </trkpt>
      <trkpt lat="45.15205" lon="4.22541">
        <ele>821.58</ele>
        <time>2015-09-10T09:49:22Z</time>
      </trkpt>
      <trkpt lat="45.15206" lon="4.22559">
        <ele>821.1</ele>
        <time>2015-09-10T09:49:30Z</time>
      </trkpt>
      <trkpt lat="45.15203" lon="4.22596">
        <ele>823.03</ele>
        <time>2015-09-10T09:49:47Z</time>
      </trkpt>
      <trkpt lat="45.15206" lon="4.22607">
        <ele>823.03</ele>
        <time>2015-09-10T09:49:52Z</time>
      </trkpt>
      <trkpt lat="45.15213" lon="4.22632">
        <ele>823.99</ele>
        <time>2015-09-10T09:50:05Z</time>
      </trkpt>
      <trkpt lat="45.15221" lon="4.22666">
        <ele>822.06</ele>
        <time>2015-09-10T09:50:21Z</time>
      </trkpt>
      <trkpt lat="45.1523" lon="4.22695">
        <ele>820.62</ele>
        <time>2015-09-10T09:50:38Z</time>
      </trkpt>
      <trkpt lat="45.15249" lon="4.22761">
        <ele>820.14</ele>
        <time>2015-09-10T09:50:55Z</time>
      </trkpt>
      <trkpt lat="45.1526" lon="4.22803">
        <ele>823.51</ele>
        <time>2015-09-10T09:51:05Z</time>
      </trkpt>
      <trkpt lat="45.15275" lon="4.2283">
        <ele>824.47</ele>
        <time>2015-09-10T09:51:18Z</time>
      </trkpt>
      <trkpt lat="45.15283" lon="4.22852">
        <ele>826.39</ele>
        <time>2015-09-10T09:51:29Z</time>
      </trkpt>
      <trkpt lat="45.15296" lon="4.22872">
        <ele>826.39</ele>
        <time>2015-09-10T09:51:42Z</time>
      </trkpt>
      <trkpt lat="45.15298" lon="4.22875">
        <ele>826.39</ele>
        <time>2015-09-10T09:51:44Z</time>
      </trkpt>
      <trkpt lat="45.15305" lon="4.22885">
        <ele>826.39</ele>
        <time>2015-09-10T09:51:49Z</time>
      </trkpt>
      <trkpt lat="45.15312" lon="4.22893">
        <ele>826.39</ele>
        <time>2015-09-10T09:51:55Z</time>
      </trkpt>
      <trkpt lat="45.15326" lon="4.2292">
        <ele>823.99</ele>
        <time>2015-09-10T09:52:07Z</time>
      </trkpt>
      <trkpt lat="45.15328" lon="4.22931">
        <ele>822.55</ele>
        <time>2015-09-10T09:52:11Z</time>
      </trkpt>
      <trkpt lat="45.15329" lon="4.22965">
        <ele>820.14</ele>
        <time>2015-09-10T09:52:26Z</time>
      </trkpt>
      <trkpt lat="45.15334" lon="4.22995">
        <ele>820.62</ele>
        <time>2015-09-10T09:52:41Z</time>
      </trkpt>
      <trkpt lat="45.15342" lon="4.23017">
        <ele>823.51</ele>
        <time>2015-09-10T09:52:55Z</time>
      </trkpt>
      <trkpt lat="45.1534" lon="4.23041">
        <ele>824.47</ele>
        <time>2015-09-10T09:53:09Z</time>
      </trkpt>
      <trkpt lat="45.15333" lon="4.2308">
        <ele>821.58</ele>
        <time>2015-09-10T09:53:26Z</time>
      </trkpt>
      <trkpt lat="45.15327" lon="4.23123">
        <ele>819.18</ele>
        <time>2015-09-10T09:53:47Z</time>
      </trkpt>
      <trkpt lat="45.15334" lon="4.23148">
        <ele>821.58</ele>
        <time>2015-09-10T09:54:02Z</time>
      </trkpt>
      <trkpt lat="45.15339" lon="4.23165">
        <ele>824.95</ele>
        <time>2015-09-10T09:54:15Z</time>
      </trkpt>
      <trkpt lat="45.15346" lon="4.23172">
        <ele>827.35</ele>
        <time>2015-09-10T09:54:22Z</time>
      </trkpt>
      <trkpt lat="45.15371" lon="4.23179">
        <ele>828.31</ele>
        <time>2015-09-10T09:54:38Z</time>
      </trkpt>
      <trkpt lat="45.15386" lon="4.23167">
        <ele>830.24</ele>
        <time>2015-09-10T09:54:53Z</time>
      </trkpt>
      <trkpt lat="45.15388" lon="4.23166">
        <ele>830.24</ele>
        <time>2015-09-10T09:54:55Z</time>
      </trkpt>
      <trkpt lat="45.15418" lon="4.23155">
        <ele>830.72</ele>
        <time>2015-09-10T09:55:11Z</time>
      </trkpt>
      <trkpt lat="45.15429" lon="4.23159">
        <ele>832.64</ele>
        <time>2015-09-10T09:55:18Z</time>
      </trkpt>
      <trkpt lat="45.15447" lon="4.23148">
        <ele>830.24</ele>
        <time>2015-09-10T09:55:32Z</time>
      </trkpt>
      <trkpt lat="45.15467" lon="4.23134">
        <ele>828.31</ele>
        <time>2015-09-10T09:55:48Z</time>
      </trkpt>
      <trkpt lat="45.15488" lon="4.23124">
        <ele>826.87</ele>
        <time>2015-09-10T09:56:02Z</time>
      </trkpt>
      <trkpt lat="45.15514" lon="4.23114">
        <ele>823.51</ele>
        <time>2015-09-10T09:56:20Z</time>
      </trkpt>
      <trkpt lat="45.15536" lon="4.23109">
        <ele>823.51</ele>
        <time>2015-09-10T09:56:33Z</time>
      </trkpt>
      <trkpt lat="45.15558" lon="4.23108">
        <ele>819.66</ele>
        <time>2015-09-10T09:56:47Z</time>
      </trkpt>
      <trkpt lat="45.15561" lon="4.23112">
        <ele>818.22</ele>
        <time>2015-09-10T09:56:50Z</time>
      </trkpt>
      <trkpt lat="45.15572" lon="4.23126">
        <ele>816.78</ele>
        <time>2015-09-10T09:56:58Z</time>
      </trkpt>
      <trkpt lat="45.15574" lon="4.23154">
        <ele>811.97</ele>
        <time>2015-09-10T09:57:13Z</time>
      </trkpt>
      <trkpt lat="45.1558" lon="4.23179">
        <ele>812.45</ele>
        <time>2015-09-10T09:57:26Z</time>
      </trkpt>
      <trkpt lat="45.15576" lon="4.23206">
        <ele>811.01</ele>
        <time>2015-09-10T09:57:41Z</time>
      </trkpt>
      <trkpt lat="45.15569" lon="4.23215">
        <ele>811.01</ele>
        <time>2015-09-10T09:57:48Z</time>
      </trkpt>
      <trkpt lat="45.15565" lon="4.23224">
        <ele>811.49</ele>
        <time>2015-09-10T09:57:54Z</time>
      </trkpt>
      <trkpt lat="45.15565" lon="4.23229">
        <ele>811.97</ele>
        <time>2015-09-10T09:57:57Z</time>
      </trkpt>
      <trkpt lat="45.15558" lon="4.2327">
        <ele>812.45</ele>
        <time>2015-09-10T09:58:04Z</time>
      </trkpt>
      <trkpt lat="45.1554" lon="4.23324">
        <ele>814.37</ele>
        <time>2015-09-10T09:58:15Z</time>
      </trkpt>
      <trkpt lat="45.15526" lon="4.23352">
        <ele>813.89</ele>
        <time>2015-09-10T09:58:29Z</time>
      </trkpt>
      <trkpt lat="45.15516" lon="4.23375">
        <ele>811.49</ele>
        <time>2015-09-10T09:58:41Z</time>
      </trkpt>
      <trkpt lat="45.15512" lon="4.23392">
        <ele>808.61</ele>
        <time>2015-09-10T09:58:48Z</time>
      </trkpt>
      <trkpt lat="45.15505" lon="4.23431">
        <ele>806.68</ele>
        <time>2015-09-10T09:58:54Z</time>
      </trkpt>
      <trkpt lat="45.155" lon="4.23456">
        <ele>807.16</ele>
        <time>2015-09-10T09:58:58Z</time>
      </trkpt>
      <trkpt lat="45.15499" lon="4.23491">
        <ele>808.61</ele>
        <time>2015-09-10T09:59:03Z</time>
      </trkpt>
      <trkpt lat="45.15504" lon="4.23529">
        <ele>814.37</ele>
        <time>2015-09-10T09:59:13Z</time>
      </trkpt>
      <trkpt lat="45.15507" lon="4.23532">
        <ele>816.78</ele>
        <time>2015-09-10T09:59:18Z</time>
      </trkpt>
      <trkpt lat="45.15528" lon="4.23529">
        <ele>818.7</ele>
        <time>2015-09-10T09:59:34Z</time>
      </trkpt>
      <trkpt lat="45.15542" lon="4.23521">
        <ele>821.1</ele>
        <time>2015-09-10T09:59:50Z</time>
      </trkpt>
      <trkpt lat="45.15561" lon="4.23519">
        <ele>826.39</ele>
        <time>2015-09-10T10:00:05Z</time>
      </trkpt>
      <trkpt lat="45.15578" lon="4.23502">
        <ele>837.45</ele>
        <time>2015-09-10T10:00:21Z</time>
      </trkpt>
      <trkpt lat="45.15593" lon="4.23483">
        <ele>836.96</ele>
        <time>2015-09-10T10:00:37Z</time>
      </trkpt>
      <trkpt lat="45.1561" lon="4.23465">
        <ele>840.81</ele>
        <time>2015-09-10T10:00:53Z</time>
      </trkpt>
      <trkpt lat="45.15613" lon="4.23462">
        <ele>840.81</ele>
        <time>2015-09-10T10:00:55Z</time>
      </trkpt>
      <trkpt lat="45.15624" lon="4.23456">
        <ele>840.81</ele>
        <time>2015-09-10T10:00:59Z</time>
      </trkpt>
      <trkpt lat="45.15632" lon="4.23451">
        <ele>840.33</ele>
        <time>2015-09-10T10:01:01Z</time>
      </trkpt>
      <trkpt lat="45.15662" lon="4.23424">
        <ele>838.89</ele>
        <time>2015-09-10T10:01:09Z</time>
      </trkpt>
      <trkpt lat="45.15676" lon="4.23414">
        <ele>840.81</ele>
        <time>2015-09-10T10:01:17Z</time>
      </trkpt>
      <trkpt lat="45.15702" lon="4.23405">
        <ele>841.77</ele>
        <time>2015-09-10T10:01:34Z</time>
      </trkpt>
      <trkpt lat="45.15721" lon="4.23409">
        <ele>841.29</ele>
        <time>2015-09-10T10:01:43Z</time>
      </trkpt>
      <trkpt lat="45.15725" lon="4.23409">
        <ele>840.81</ele>
        <time>2015-09-10T10:01:46Z</time>
      </trkpt>
      <trkpt lat="45.15734" lon="4.23411">
        <ele>839.37</ele>
        <time>2015-09-10T10:01:52Z</time>
      </trkpt>
      <trkpt lat="45.15745" lon="4.23413">
        <ele>839.85</ele>
        <time>2015-09-10T10:02:02Z</time>
      </trkpt>
      <trkpt lat="45.15756" lon="4.23423">
        <ele>838.89</ele>
        <time>2015-09-10T10:02:10Z</time>
      </trkpt>
      <trkpt lat="45.15776" lon="4.23426">
        <ele>838.41</ele>
        <time>2015-09-10T10:02:24Z</time>
      </trkpt>
      <trkpt lat="45.15783" lon="4.23423">
        <ele>837.45</ele>
        <time>2015-09-10T10:02:29Z</time>
      </trkpt>
      <trkpt lat="45.15801" lon="4.23421">
        <ele>836</ele>
        <time>2015-09-10T10:02:41Z</time>
      </trkpt>
      <trkpt lat="45.15807" lon="4.23426">
        <ele>833.12</ele>
        <time>2015-09-10T10:02:46Z</time>
      </trkpt>
      <trkpt lat="45.15812" lon="4.23434">
        <ele>830.72</ele>
        <time>2015-09-10T10:02:51Z</time>
      </trkpt>
      <trkpt lat="45.15814" lon="4.23438">
        <ele>830.24</ele>
        <time>2015-09-10T10:02:53Z</time>
      </trkpt>
      <trkpt lat="45.15817" lon="4.23454">
        <ele>828.31</ele>
        <time>2015-09-10T10:03:01Z</time>
      </trkpt>
      <trkpt lat="45.15823" lon="4.23487">
        <ele>824.95</ele>
        <time>2015-09-10T10:03:16Z</time>
      </trkpt>
      <trkpt lat="45.15825" lon="4.23496">
        <ele>824.95</ele>
        <time>2015-09-10T10:03:20Z</time>
      </trkpt>
      <trkpt lat="45.15828" lon="4.23519">
        <ele>824.47</ele>
        <time>2015-09-10T10:03:33Z</time>
      </trkpt>
      <trkpt lat="45.15829" lon="4.23521">
        <ele>824.47</ele>
        <time>2015-09-10T10:03:34Z</time>
      </trkpt>
      <trkpt lat="45.15831" lon="4.23524">
        <ele>823.99</ele>
        <time>2015-09-10T10:03:36Z</time>
      </trkpt>
      <trkpt lat="45.15846" lon="4.23545">
        <ele>822.06</ele>
        <time>2015-09-10T10:03:48Z</time>
      </trkpt>
      <trkpt lat="45.1585" lon="4.23546">
        <ele>821.58</ele>
        <time>2015-09-10T10:03:51Z</time>
      </trkpt>
      <trkpt lat="45.15871" lon="4.23539">
        <ele>818.22</ele>
        <time>2015-09-10T10:04:06Z</time>
      </trkpt>
      <trkpt lat="45.15874" lon="4.23535">
        <ele>817.74</ele>
        <time>2015-09-10T10:04:09Z</time>
      </trkpt>
      <trkpt lat="45.15891" lon="4.23512">
        <ele>814.37</ele>
        <time>2015-09-10T10:04:22Z</time>
      </trkpt>
      <trkpt lat="45.15931" lon="4.23454">
        <ele>812.45</ele>
        <time>2015-09-10T10:04:34Z</time>
      </trkpt>
      <trkpt lat="45.15936" lon="4.23425">
        <ele>816.78</ele>
        <time>2015-09-10T10:04:47Z</time>
      </trkpt>
      <trkpt lat="45.15949" lon="4.2339">
        <ele>819.66</ele>
        <time>2015-09-10T10:05:03Z</time>
      </trkpt>
      <trkpt lat="45.15954" lon="4.23383">
        <ele>822.06</ele>
        <time>2015-09-10T10:05:09Z</time>
      </trkpt>
      <trkpt lat="45.15962" lon="4.23378">
        <ele>823.03</ele>
        <time>2015-09-10T10:05:16Z</time>
      </trkpt>
      <trkpt lat="45.15988" lon="4.23365">
        <ele>825.43</ele>
        <time>2015-09-10T10:05:37Z</time>
      </trkpt>
      <trkpt lat="45.16008" lon="4.23354">
        <ele>826.39</ele>
        <time>2015-09-10T10:05:55Z</time>
      </trkpt>
      <trkpt lat="45.16027" lon="4.23346">
        <ele>827.83</ele>
        <time>2015-09-10T10:06:11Z</time>
      </trkpt>
      <trkpt lat="45.16041" lon="4.23354">
        <ele>827.35</ele>
        <time>2015-09-10T10:06:22Z</time>
      </trkpt>
      <trkpt lat="45.16044" lon="4.23362">
        <ele>827.35</ele>
        <time>2015-09-10T10:06:26Z</time>
      </trkpt>
      <trkpt lat="45.16046" lon="4.23401">
        <ele>827.35</ele>
        <time>2015-09-10T10:06:46Z</time>
      </trkpt>
      <trkpt lat="45.16042" lon="4.2343">
        <ele>827.83</ele>
        <time>2015-09-10T10:07:02Z</time>
      </trkpt>
      <trkpt lat="45.16041" lon="4.23449">
        <ele>829.76</ele>
        <time>2015-09-10T10:07:13Z</time>
      </trkpt>
      <trkpt lat="45.1604" lon="4.23496">
        <ele>833.6</ele>
        <time>2015-09-10T10:07:38Z</time>
      </trkpt>
      <trkpt lat="45.16035" lon="4.23535">
        <ele>833.12</ele>
        <time>2015-09-10T10:07:59Z</time>
      </trkpt>
      <trkpt lat="45.16025" lon="4.23592">
        <ele>832.64</ele>
        <time>2015-09-10T10:08:13Z</time>
      </trkpt>
      <trkpt lat="45.16019" lon="4.23654">
        <ele>833.6</ele>
        <time>2015-09-10T10:08:26Z</time>
      </trkpt>
      <trkpt lat="45.16029" lon="4.23698">
        <ele>838.89</ele>
        <time>2015-09-10T10:08:46Z</time>
      </trkpt>
      <trkpt lat="45.16033" lon="4.23714">
        <ele>840.81</ele>
        <time>2015-09-10T10:08:53Z</time>
      </trkpt>
      <trkpt lat="45.16019" lon="4.23754">
        <ele>846.1</ele>
        <time>2015-09-10T10:09:13Z</time>
      </trkpt>
      <trkpt lat="45.16019" lon="4.23781">
        <ele>846.1</ele>
        <time>2015-09-10T10:09:28Z</time>
      </trkpt>
      <trkpt lat="45.1602" lon="4.23805">
        <ele>842.73</ele>
        <time>2015-09-10T10:09:42Z</time>
      </trkpt>
      <trkpt lat="45.16022" lon="4.23829">
        <ele>838.41</ele>
        <time>2015-09-10T10:09:51Z</time>
      </trkpt>
      <trkpt lat="45.16022" lon="4.23841">
        <ele>836.48</ele>
        <time>2015-09-10T10:09:56Z</time>
      </trkpt>
      <trkpt lat="45.16019" lon="4.23854">
        <ele>835.52</ele>
        <time>2015-09-10T10:10:02Z</time>
      </trkpt>
      <trkpt lat="45.1602" lon="4.23866">
        <ele>833.12</ele>
        <time>2015-09-10T10:10:10Z</time>
      </trkpt>
      <trkpt lat="45.16034" lon="4.23907">
        <ele>822.06</ele>
        <time>2015-09-10T10:10:20Z</time>
      </trkpt>
      <trkpt lat="45.16044" lon="4.23927">
        <ele>818.7</ele>
        <time>2015-09-10T10:10:28Z</time>
      </trkpt>
      <trkpt lat="45.16056" lon="4.23949">
        <ele>820.62</ele>
        <time>2015-09-10T10:10:41Z</time>
      </trkpt>
      <trkpt lat="45.16072" lon="4.23979">
        <ele>826.39</ele>
        <time>2015-09-10T10:10:54Z</time>
      </trkpt>
      <trkpt lat="45.16075" lon="4.2398">
        <ele>827.83</ele>
        <time>2015-09-10T10:10:55Z</time>
      </trkpt>
      <trkpt lat="45.16077" lon="4.2399">
        <ele>829.27</ele>
        <time>2015-09-10T10:11:01Z</time>
      </trkpt>
      <trkpt lat="45.1608" lon="4.24014">
        <ele>826.87</ele>
        <time>2015-09-10T10:11:18Z</time>
      </trkpt>
      <trkpt lat="45.16085" lon="4.24037">
        <ele>823.03</ele>
        <time>2015-09-10T10:11:32Z</time>
      </trkpt>
      <trkpt lat="45.16091" lon="4.24049">
        <ele>821.1</ele>
        <time>2015-09-10T10:11:41Z</time>
      </trkpt>
      <trkpt lat="45.16096" lon="4.24053">
        <ele>820.14</ele>
        <time>2015-09-10T10:11:45Z</time>
      </trkpt>
      <trkpt lat="45.16108" lon="4.24062">
        <ele>818.7</ele>
        <time>2015-09-10T10:11:49Z</time>
      </trkpt>
      <trkpt lat="45.16131" lon="4.2409">
        <ele>815.82</ele>
        <time>2015-09-10T10:11:55Z</time>
      </trkpt>
      <trkpt lat="45.16143" lon="4.24117">
        <ele>813.41</ele>
        <time>2015-09-10T10:11:59Z</time>
      </trkpt>
      <trkpt lat="45.16168" lon="4.24164">
        <ele>813.89</ele>
        <time>2015-09-10T10:12:05Z</time>
      </trkpt>
      <trkpt lat="45.16221" lon="4.24203">
        <ele>820.14</ele>
        <time>2015-09-10T10:12:16Z</time>
      </trkpt>
      <trkpt lat="45.16253" lon="4.24237">
        <ele>828.31</ele>
        <time>2015-09-10T10:12:32Z</time>
      </trkpt>
      <trkpt lat="45.16264" lon="4.24258">
        <ele>827.35</ele>
        <time>2015-09-10T10:12:37Z</time>
      </trkpt>
      <trkpt lat="45.16282" lon="4.24291">
        <ele>827.83</ele>
        <time>2015-09-10T10:12:42Z</time>
      </trkpt>
      <trkpt lat="45.16321" lon="4.24393">
        <ele>830.72</ele>
        <time>2015-09-10T10:12:56Z</time>
      </trkpt>
      <trkpt lat="45.16333" lon="4.24434">
        <ele>836.96</ele>
        <time>2015-09-10T10:13:09Z</time>
      </trkpt>
      <trkpt lat="45.16344" lon="4.24479">
        <ele>842.73</ele>
        <time>2015-09-10T10:13:30Z</time>
      </trkpt>
      <trkpt lat="45.16356" lon="4.24517">
        <ele>846.1</ele>
        <time>2015-09-10T10:13:44Z</time>
      </trkpt>
      <trkpt lat="45.1636" lon="4.24555">
        <ele>849.46</ele>
        <time>2015-09-10T10:13:59Z</time>
      </trkpt>
      <trkpt lat="45.16359" lon="4.24596">
        <ele>854.75</ele>
        <time>2015-09-10T10:14:18Z</time>
      </trkpt>
      <trkpt lat="45.16354" lon="4.24629">
        <ele>856.67</ele>
        <time>2015-09-10T10:14:34Z</time>
      </trkpt>
      <trkpt lat="45.1636" lon="4.24663">
        <ele>856.67</ele>
        <time>2015-09-10T10:14:51Z</time>
      </trkpt>
      <trkpt lat="45.1636" lon="4.24665">
        <ele>856.67</ele>
        <time>2015-09-10T10:14:52Z</time>
      </trkpt>
      <trkpt lat="45.16335" lon="4.24681">
        <ele>857.63</ele>
        <time>2015-09-10T10:15:09Z</time>
      </trkpt>
      <trkpt lat="45.16311" lon="4.24688">
        <ele>857.63</ele>
        <time>2015-09-10T10:15:24Z</time>
      </trkpt>
      <trkpt lat="45.16282" lon="4.24678">
        <ele>857.15</ele>
        <time>2015-09-10T10:15:44Z</time>
      </trkpt>
      <trkpt lat="45.16258" lon="4.2465">
        <ele>854.75</ele>
        <time>2015-09-10T10:16:02Z</time>
      </trkpt>
      <trkpt lat="45.16239" lon="4.24625">
        <ele>849.46</ele>
        <time>2015-09-10T10:16:19Z</time>
      </trkpt>
      <trkpt lat="45.16226" lon="4.24597">
        <ele>846.58</ele>
        <time>2015-09-10T10:16:34Z</time>
      </trkpt>
      <trkpt lat="45.16218" lon="4.24565">
        <ele>842.73</ele>
        <time>2015-09-10T10:16:51Z</time>
      </trkpt>
      <trkpt lat="45.16195" lon="4.24551">
        <ele>840.33</ele>
        <time>2015-09-10T10:17:08Z</time>
      </trkpt>
      <trkpt lat="45.16167" lon="4.24556">
        <ele>837.93</ele>
        <time>2015-09-10T10:17:27Z</time>
      </trkpt>
      <trkpt lat="45.16148" lon="4.24572">
        <ele>836</ele>
        <time>2015-09-10T10:17:43Z</time>
      </trkpt>
      <trkpt lat="45.16122" lon="4.2459">
        <ele>836.96</ele>
        <time>2015-09-10T10:18:01Z</time>
      </trkpt>
      <trkpt lat="45.16103" lon="4.24603">
        <ele>837.93</ele>
        <time>2015-09-10T10:18:10Z</time>
      </trkpt>
      <trkpt lat="45.16038" lon="4.24683">
        <ele>839.85</ele>
        <time>2015-09-10T10:18:25Z</time>
      </trkpt>
      <trkpt lat="45.15959" lon="4.24773">
        <ele>842.73</ele>
        <time>2015-09-10T10:18:41Z</time>
      </trkpt>
      <trkpt lat="45.15944" lon="4.24796">
        <ele>843.21</ele>
        <time>2015-09-10T10:18:50Z</time>
      </trkpt>
      <trkpt lat="45.15924" lon="4.24826">
        <ele>842.73</ele>
        <time>2015-09-10T10:19:08Z</time>
      </trkpt>
      <trkpt lat="45.15912" lon="4.24848">
        <ele>842.73</ele>
        <time>2015-09-10T10:19:23Z</time>
      </trkpt>
      <trkpt lat="45.15899" lon="4.24881">
        <ele>835.52</ele>
        <time>2015-09-10T10:19:37Z</time>
      </trkpt>
      <trkpt lat="45.1588" lon="4.24893">
        <ele>832.64</ele>
        <time>2015-09-10T10:19:41Z</time>
      </trkpt>
      <trkpt lat="45.1584" lon="4.24923">
        <ele>826.87</ele>
        <time>2015-09-10T10:19:51Z</time>
      </trkpt>
      <trkpt lat="45.15823" lon="4.24947">
        <ele>828.79</ele>
        <time>2015-09-10T10:20:03Z</time>
      </trkpt>
      <trkpt lat="45.15802" lon="4.24968">
        <ele>834.08</ele>
        <time>2015-09-10T10:20:20Z</time>
      </trkpt>
      <trkpt lat="45.15782" lon="4.24989">
        <ele>834.08</ele>
        <time>2015-09-10T10:20:35Z</time>
      </trkpt>
      <trkpt lat="45.15767" lon="4.24998">
        <ele>833.12</ele>
        <time>2015-09-10T10:20:53Z</time>
      </trkpt>
      <trkpt lat="45.15747" lon="4.25005">
        <ele>834.08</ele>
        <time>2015-09-10T10:21:06Z</time>
      </trkpt>
      <trkpt lat="45.15722" lon="4.25013">
        <ele>839.85</ele>
        <time>2015-09-10T10:21:20Z</time>
      </trkpt>
      <trkpt lat="45.15701" lon="4.25026">
        <ele>849.46</ele>
        <time>2015-09-10T10:21:34Z</time>
      </trkpt>
      <trkpt lat="45.15675" lon="4.25027">
        <ele>852.83</ele>
        <time>2015-09-10T10:21:48Z</time>
      </trkpt>
      <trkpt lat="45.15659" lon="4.25026">
        <ele>853.31</ele>
        <time>2015-09-10T10:21:53Z</time>
      </trkpt>
      <trkpt lat="45.15598" lon="4.25049">
        <ele>848.98</ele>
        <time>2015-09-10T10:22:05Z</time>
      </trkpt>
      <trkpt lat="45.15558" lon="4.25069">
        <ele>846.58</ele>
        <time>2015-09-10T10:22:22Z</time>
      </trkpt>
      <trkpt lat="45.15541" lon="4.25081">
        <ele>844.18</ele>
        <time>2015-09-10T10:22:37Z</time>
      </trkpt>
      <trkpt lat="45.15523" lon="4.25095">
        <ele>841.29</ele>
        <time>2015-09-10T10:22:50Z</time>
      </trkpt>
      <trkpt lat="45.15515" lon="4.25098">
        <ele>841.29</ele>
        <time>2015-09-10T10:22:55Z</time>
      </trkpt>
      <trkpt lat="45.15491" lon="4.25094">
        <ele>840.81</ele>
        <time>2015-09-10T10:23:09Z</time>
      </trkpt>
      <trkpt lat="45.15467" lon="4.25078">
        <ele>838.89</ele>
        <time>2015-09-10T10:23:25Z</time>
      </trkpt>
      <trkpt lat="45.1545" lon="4.25068">
        <ele>841.29</ele>
        <time>2015-09-10T10:23:40Z</time>
      </trkpt>
      <trkpt lat="45.15434" lon="4.25065">
        <ele>839.37</ele>
        <time>2015-09-10T10:23:55Z</time>
      </trkpt>
      <trkpt lat="45.15419" lon="4.25066">
        <ele>837.93</ele>
        <time>2015-09-10T10:24:10Z</time>
      </trkpt>
      <trkpt lat="45.1539" lon="4.2507">
        <ele>837.93</ele>
        <time>2015-09-10T10:24:25Z</time>
      </trkpt>
      <trkpt lat="45.1537" lon="4.25063">
        <ele>837.93</ele>
        <time>2015-09-10T10:24:39Z</time>
      </trkpt>
      <trkpt lat="45.15359" lon="4.25052">
        <ele>837.45</ele>
        <time>2015-09-10T10:24:57Z</time>
      </trkpt>
      <trkpt lat="45.15338" lon="4.25042">
        <ele>830.24</ele>
        <time>2015-09-10T10:25:13Z</time>
      </trkpt>
      <trkpt lat="45.15335" lon="4.25043">
        <ele>828.31</ele>
        <time>2015-09-10T10:25:17Z</time>
      </trkpt>
      <trkpt lat="45.15313" lon="4.25055">
        <ele>820.62</ele>
        <time>2015-09-10T10:25:36Z</time>
      </trkpt>
      <trkpt lat="45.15289" lon="4.25063">
        <ele>811.97</ele>
        <time>2015-09-10T10:25:55Z</time>
      </trkpt>
      <trkpt lat="45.15259" lon="4.25071">
        <ele>804.28</ele>
        <time>2015-09-10T10:26:18Z</time>
      </trkpt>
      <trkpt lat="45.15229" lon="4.25088">
        <ele>800.92</ele>
        <time>2015-09-10T10:26:45Z</time>
      </trkpt>
      <trkpt lat="45.15194" lon="4.25112">
        <ele>803.8</ele>
        <time>2015-09-10T10:27:03Z</time>
      </trkpt>
      <trkpt lat="45.1519" lon="4.25114">
        <ele>805.24</ele>
        <time>2015-09-10T10:27:05Z</time>
      </trkpt>
      <trkpt lat="45.15183" lon="4.2512">
        <ele>811.01</ele>
        <time>2015-09-10T10:27:09Z</time>
      </trkpt>
      <trkpt lat="45.15174" lon="4.25141">
        <ele>817.74</ele>
        <time>2015-09-10T10:27:25Z</time>
      </trkpt>
      <trkpt lat="45.15185" lon="4.25178">
        <ele>823.51</ele>
        <time>2015-09-10T10:27:43Z</time>
      </trkpt>
      <trkpt lat="45.15165" lon="4.25199">
        <ele>824.95</ele>
        <time>2015-09-10T10:27:55Z</time>
      </trkpt>
      <trkpt lat="45.15148" lon="4.2521">
        <ele>824.95</ele>
        <time>2015-09-10T10:28:01Z</time>
      </trkpt>
      <trkpt lat="45.15148" lon="4.2524">
        <ele>824.95</ele>
        <time>2015-09-10T10:28:05Z</time>
      </trkpt>
      <trkpt lat="45.15139" lon="4.25338">
        <ele>827.83</ele>
        <time>2015-09-10T10:28:22Z</time>
      </trkpt>
      <trkpt lat="45.1514" lon="4.25339">
        <ele>828.31</ele>
        <time>2015-09-10T10:28:23Z</time>
      </trkpt>
      <trkpt lat="45.15153" lon="4.25359">
        <ele>835.52</ele>
        <time>2015-09-10T10:28:38Z</time>
      </trkpt>
      <trkpt lat="45.15168" lon="4.25376">
        <ele>835.04</ele>
        <time>2015-09-10T10:28:50Z</time>
      </trkpt>
      <trkpt lat="45.1518" lon="4.25392">
        <ele>831.68</ele>
        <time>2015-09-10T10:29:03Z</time>
      </trkpt>
      <trkpt lat="45.15192" lon="4.25406">
        <ele>829.27</ele>
        <time>2015-09-10T10:29:18Z</time>
      </trkpt>
      <trkpt lat="45.15203" lon="4.25425">
        <ele>827.83</ele>
        <time>2015-09-10T10:29:28Z</time>
      </trkpt>
      <trkpt lat="45.15207" lon="4.25468">
        <ele>825.91</ele>
        <time>2015-09-10T10:29:42Z</time>
      </trkpt>
      <trkpt lat="45.15209" lon="4.25517">
        <ele>825.91</ele>
        <time>2015-09-10T10:29:51Z</time>
      </trkpt>
      <trkpt lat="45.15208" lon="4.25553">
        <ele>831.2</ele>
        <time>2015-09-10T10:30:05Z</time>
      </trkpt>
      <trkpt lat="45.15211" lon="4.25563">
        <ele>832.16</ele>
        <time>2015-09-10T10:30:11Z</time>
      </trkpt>
      <trkpt lat="45.15218" lon="4.25587">
        <ele>831.2</ele>
        <time>2015-09-10T10:30:24Z</time>
      </trkpt>
      <trkpt lat="45.15214" lon="4.25622">
        <ele>826.39</ele>
        <time>2015-09-10T10:30:34Z</time>
      </trkpt>
      <trkpt lat="45.15217" lon="4.2565">
        <ele>821.1</ele>
        <time>2015-09-10T10:30:46Z</time>
      </trkpt>
      <trkpt lat="45.15214" lon="4.25662">
        <ele>822.55</ele>
        <time>2015-09-10T10:30:51Z</time>
      </trkpt>
      <trkpt lat="45.15213" lon="4.25695">
        <ele>823.51</ele>
        <time>2015-09-10T10:31:05Z</time>
      </trkpt>
      <trkpt lat="45.15215" lon="4.25698">
        <ele>823.99</ele>
        <time>2015-09-10T10:31:07Z</time>
      </trkpt>
      <trkpt lat="45.15219" lon="4.257">
        <ele>823.51</ele>
        <time>2015-09-10T10:31:10Z</time>
      </trkpt>
      <trkpt lat="45.15269" lon="4.25719">
        <ele>819.66</ele>
        <time>2015-09-10T10:31:25Z</time>
      </trkpt>
      <trkpt lat="45.1531" lon="4.25706">
        <ele>823.99</ele>
        <time>2015-09-10T10:31:41Z</time>
      </trkpt>
      <trkpt lat="45.15345" lon="4.25695">
        <ele>828.79</ele>
        <time>2015-09-10T10:32:00Z</time>
      </trkpt>
      <trkpt lat="45.15373" lon="4.25681">
        <ele>834.56</ele>
        <time>2015-09-10T10:32:21Z</time>
      </trkpt>
      <trkpt lat="45.15415" lon="4.25702">
        <ele>837.93</ele>
        <time>2015-09-10T10:32:35Z</time>
      </trkpt>
      <trkpt lat="45.15461" lon="4.25716">
        <ele>841.29</ele>
        <time>2015-09-10T10:32:40Z</time>
      </trkpt>
      <trkpt lat="45.15545" lon="4.25757">
        <ele>848.98</ele>
        <time>2015-09-10T10:32:52Z</time>
      </trkpt>
      <trkpt lat="45.15552" lon="4.25759">
        <ele>849.46</ele>
        <time>2015-09-10T10:32:53Z</time>
      </trkpt>
      <trkpt lat="45.15591" lon="4.25763">
        <ele>849.94</ele>
        <time>2015-09-10T10:32:59Z</time>
      </trkpt>
      <trkpt lat="45.15605" lon="4.25769">
        <ele>849.94</ele>
        <time>2015-09-10T10:33:03Z</time>
      </trkpt>
      <trkpt lat="45.15623" lon="4.25796">
        <ele>851.87</ele>
        <time>2015-09-10T10:33:22Z</time>
      </trkpt>
      <trkpt lat="45.15643" lon="4.25831">
        <ele>854.27</ele>
        <time>2015-09-10T10:33:43Z</time>
      </trkpt>
      <trkpt lat="45.15662" lon="4.25863">
        <ele>855.23</ele>
        <time>2015-09-10T10:33:57Z</time>
      </trkpt>
      <trkpt lat="45.15685" lon="4.25919">
        <ele>854.27</ele>
        <time>2015-09-10T10:34:10Z</time>
      </trkpt>
      <trkpt lat="45.15694" lon="4.25947">
        <ele>854.75</ele>
        <time>2015-09-10T10:34:15Z</time>
      </trkpt>
      <trkpt lat="45.15672" lon="4.25968">
        <ele>856.19</ele>
        <time>2015-09-10T10:34:21Z</time>
      </trkpt>
      <trkpt lat="45.15629" lon="4.26012">
        <ele>856.19</ele>
        <time>2015-09-10T10:34:30Z</time>
      </trkpt>
      <trkpt lat="45.15607" lon="4.26026">
        <ele>854.75</ele>
        <time>2015-09-10T10:34:34Z</time>
      </trkpt>
      <trkpt lat="45.15579" lon="4.26033">
        <ele>851.38</ele>
        <time>2015-09-10T10:34:44Z</time>
      </trkpt>
      <trkpt lat="45.15557" lon="4.26047">
        <ele>848.5</ele>
        <time>2015-09-10T10:34:59Z</time>
      </trkpt>
      <trkpt lat="45.15549" lon="4.26057">
        <ele>846.1</ele>
        <time>2015-09-10T10:35:05Z</time>
      </trkpt>
      <trkpt lat="45.15535" lon="4.26072">
        <ele>839.37</ele>
        <time>2015-09-10T10:35:19Z</time>
      </trkpt>
      <trkpt lat="45.15514" lon="4.26098">
        <ele>838.41</ele>
        <time>2015-09-10T10:35:35Z</time>
      </trkpt>
      <trkpt lat="45.15491" lon="4.26122">
        <ele>839.85</ele>
        <time>2015-09-10T10:35:53Z</time>
      </trkpt>
      <trkpt lat="45.15472" lon="4.2614">
        <ele>839.37</ele>
        <time>2015-09-10T10:36:07Z</time>
      </trkpt>
      <trkpt lat="45.15453" lon="4.26162">
        <ele>836.96</ele>
        <time>2015-09-10T10:36:24Z</time>
      </trkpt>
      <trkpt lat="45.15435" lon="4.26177">
        <ele>833.12</ele>
        <time>2015-09-10T10:36:40Z</time>
      </trkpt>
      <trkpt lat="45.15414" lon="4.26209">
        <ele>831.68</ele>
        <time>2015-09-10T10:36:52Z</time>
      </trkpt>
      <trkpt lat="45.15399" lon="4.2623">
        <ele>832.16</ele>
        <time>2015-09-10T10:36:56Z</time>
      </trkpt>
      <trkpt lat="45.15369" lon="4.26266">
        <ele>833.12</ele>
        <time>2015-09-10T10:37:03Z</time>
      </trkpt>
      <trkpt lat="45.15329" lon="4.26305">
        <ele>832.64</ele>
        <time>2015-09-10T10:37:15Z</time>
      </trkpt>
      <trkpt lat="45.15299" lon="4.26339">
        <ele>829.76</ele>
        <time>2015-09-10T10:37:23Z</time>
      </trkpt>
      <trkpt lat="45.15279" lon="4.26369">
        <ele>828.31</ele>
        <time>2015-09-10T10:37:32Z</time>
      </trkpt>
      <trkpt lat="45.15282" lon="4.26382">
        <ele>829.76</ele>
        <time>2015-09-10T10:37:47Z</time>
      </trkpt>
      <trkpt lat="45.1529" lon="4.26392">
        <ele>829.27</ele>
        <time>2015-09-10T10:37:54Z</time>
      </trkpt>
      <trkpt lat="45.15292" lon="4.26398">
        <ele>827.35</ele>
        <time>2015-09-10T10:37:57Z</time>
      </trkpt>
      <trkpt lat="45.15309" lon="4.26458">
        <ele>812.45</ele>
        <time>2015-09-10T10:38:13Z</time>
      </trkpt>
      <trkpt lat="45.15309" lon="4.2655">
        <ele>797.55</ele>
        <time>2015-09-10T10:38:25Z</time>
      </trkpt>
      <trkpt lat="45.15311" lon="4.26587">
        <ele>793.22</ele>
        <time>2015-09-10T10:38:29Z</time>
      </trkpt>
      <trkpt lat="45.15309" lon="4.26635">
        <ele>798.99</ele>
        <time>2015-09-10T10:38:37Z</time>
      </trkpt>
      <trkpt lat="45.15294" lon="4.26695">
        <ele>819.18</ele>
        <time>2015-09-10T10:38:51Z</time>
      </trkpt>
      <trkpt lat="45.15293" lon="4.26725">
        <ele>830.72</ele>
        <time>2015-09-10T10:39:06Z</time>
      </trkpt>
      <trkpt lat="45.15286" lon="4.26753">
        <ele>832.64</ele>
        <time>2015-09-10T10:39:18Z</time>
      </trkpt>
      <trkpt lat="45.15263" lon="4.26825">
        <ele>831.2</ele>
        <time>2015-09-10T10:39:29Z</time>
      </trkpt>
      <trkpt lat="45.15252" lon="4.26849">
        <ele>832.64</ele>
        <time>2015-09-10T10:39:42Z</time>
      </trkpt>
      <trkpt lat="45.1524" lon="4.26864">
        <ele>830.72</ele>
        <time>2015-09-10T10:39:56Z</time>
      </trkpt>
      <trkpt lat="45.15225" lon="4.2688">
        <ele>825.91</ele>
        <time>2015-09-10T10:40:09Z</time>
      </trkpt>
      <trkpt lat="45.15208" lon="4.26902">
        <ele>826.39</ele>
        <time>2015-09-10T10:40:22Z</time>
      </trkpt>
      <trkpt lat="45.15206" lon="4.26906">
        <ele>826.39</ele>
        <time>2015-09-10T10:40:24Z</time>
      </trkpt>
      <trkpt lat="45.15211" lon="4.26934">
        <ele>825.91</ele>
        <time>2015-09-10T10:40:38Z</time>
      </trkpt>
      <trkpt lat="45.15212" lon="4.26938">
        <ele>825.91</ele>
        <time>2015-09-10T10:40:40Z</time>
      </trkpt>
      <trkpt lat="45.15212" lon="4.26945">
        <ele>826.87</ele>
        <time>2015-09-10T10:40:55Z</time>
      </trkpt>
      <trkpt lat="45.15204" lon="4.26954">
        <ele>828.31</ele>
        <time>2015-09-10T10:41:14Z</time>
      </trkpt>
      <trkpt lat="45.15196" lon="4.26969">
        <ele>825.91</ele>
        <time>2015-09-10T10:41:28Z</time>
      </trkpt>
      <trkpt lat="45.15197" lon="4.26983">
        <ele>824.47</ele>
        <time>2015-09-10T10:41:38Z</time>
      </trkpt>
      <trkpt lat="45.15212" lon="4.27003">
        <ele>826.39</ele>
        <time>2015-09-10T10:41:52Z</time>
      </trkpt>
      <trkpt lat="45.15216" lon="4.27012">
        <ele>827.35</ele>
        <time>2015-09-10T10:41:57Z</time>
      </trkpt>
      <trkpt lat="45.15217" lon="4.27015">
        <ele>827.83</ele>
        <time>2015-09-10T10:41:59Z</time>
      </trkpt>
      <trkpt lat="45.15219" lon="4.27027">
        <ele>828.31</ele>
        <time>2015-09-10T10:42:04Z</time>
      </trkpt>
      <trkpt lat="45.15219" lon="4.27032">
        <ele>828.31</ele>
        <time>2015-09-10T10:42:06Z</time>
      </trkpt>
      <trkpt lat="45.15235" lon="4.27049">
        <ele>829.76</ele>
        <time>2015-09-10T10:42:16Z</time>
      </trkpt>
      <trkpt lat="45.15246" lon="4.27062">
        <ele>829.27</ele>
        <time>2015-09-10T10:42:21Z</time>
      </trkpt>
      <trkpt lat="45.1525" lon="4.27069">
        <ele>829.27</ele>
        <time>2015-09-10T10:42:26Z</time>
      </trkpt>
      <trkpt lat="45.15261" lon="4.27101">
        <ele>835.04</ele>
        <time>2015-09-10T10:42:44Z</time>
      </trkpt>
      <trkpt lat="45.15262" lon="4.2711">
        <ele>836</ele>
        <time>2015-09-10T10:42:48Z</time>
      </trkpt>
      <trkpt lat="45.1526" lon="4.27119">
        <ele>836.48</ele>
        <time>2015-09-10T10:42:53Z</time>
      </trkpt>
      <trkpt lat="45.15218" lon="4.27135">
        <ele>835.04</ele>
        <time>2015-09-10T10:43:04Z</time>
      </trkpt>
      <trkpt lat="45.15202" lon="4.27136">
        <ele>834.08</ele>
        <time>2015-09-10T10:43:07Z</time>
      </trkpt>
      <trkpt lat="45.15184" lon="4.27134">
        <ele>834.08</ele>
        <time>2015-09-10T10:43:10Z</time>
      </trkpt>
      <trkpt lat="45.15168" lon="4.27135">
        <ele>834.08</ele>
        <time>2015-09-10T10:43:13Z</time>
      </trkpt>
      <trkpt lat="45.15127" lon="4.27136">
        <ele>836.48</ele>
        <time>2015-09-10T10:43:22Z</time>
      </trkpt>
      <trkpt lat="45.15105" lon="4.27146">
        <ele>836.96</ele>
        <time>2015-09-10T10:43:26Z</time>
      </trkpt>
      <trkpt lat="45.15091" lon="4.27152">
        <ele>837.45</ele>
        <time>2015-09-10T10:43:28Z</time>
      </trkpt>
      <trkpt lat="45.15046" lon="4.27191">
        <ele>842.25</ele>
        <time>2015-09-10T10:43:36Z</time>
      </trkpt>
      <trkpt lat="45.14981" lon="4.27244">
        <ele>848.5</ele>
        <time>2015-09-10T10:43:46Z</time>
      </trkpt>
      <trkpt lat="45.14952" lon="4.27265">
        <ele>850.9</ele>
        <time>2015-09-10T10:43:50Z</time>
      </trkpt>
      <trkpt lat="45.14929" lon="4.27286">
        <ele>851.87</ele>
        <time>2015-09-10T10:43:54Z</time>
      </trkpt>
      <trkpt lat="45.14903" lon="4.27312">
        <ele>854.27</ele>
        <time>2015-09-10T10:44:03Z</time>
      </trkpt>
      <trkpt lat="45.14889" lon="4.27336">
        <ele>856.67</ele>
        <time>2015-09-10T10:44:12Z</time>
      </trkpt>
      <trkpt lat="45.14813" lon="4.27412">
        <ele>853.31</ele>
        <time>2015-09-10T10:44:26Z</time>
      </trkpt>
      <trkpt lat="45.14793" lon="4.2742">
        <ele>853.79</ele>
        <time>2015-09-10T10:44:34Z</time>
      </trkpt>
      <trkpt lat="45.14764" lon="4.27418">
        <ele>857.15</ele>
        <time>2015-09-10T10:44:50Z</time>
      </trkpt>
      <trkpt lat="45.14735" lon="4.27415">
        <ele>859.08</ele>
        <time>2015-09-10T10:45:08Z</time>
      </trkpt>
      <trkpt lat="45.14715" lon="4.27416">
        <ele>860.04</ele>
        <time>2015-09-10T10:45:20Z</time>
      </trkpt>
      <trkpt lat="45.1467" lon="4.27422">
        <ele>860.52</ele>
        <time>2015-09-10T10:45:29Z</time>
      </trkpt>
      <trkpt lat="45.14643" lon="4.2743">
        <ele>861</ele>
        <time>2015-09-10T10:45:34Z</time>
      </trkpt>
      <trkpt lat="45.14557" lon="4.27455">
        <ele>859.08</ele>
        <time>2015-09-10T10:45:48Z</time>
      </trkpt>
      <trkpt lat="45.14545" lon="4.27455">
        <ele>858.59</ele>
        <time>2015-09-10T10:45:50Z</time>
      </trkpt>
      <trkpt lat="45.14512" lon="4.27446">
        <ele>857.15</ele>
        <time>2015-09-10T10:45:55Z</time>
      </trkpt>
      <trkpt lat="45.14478" lon="4.2743">
        <ele>854.75</ele>
        <time>2015-09-10T10:46:00Z</time>
      </trkpt>
      <trkpt lat="45.14393" lon="4.27416">
        <ele>852.35</ele>
        <time>2015-09-10T10:46:11Z</time>
      </trkpt>
      <trkpt lat="45.1437" lon="4.27412">
        <ele>851.38</ele>
        <time>2015-09-10T10:46:20Z</time>
      </trkpt>
      <trkpt lat="45.14362" lon="4.27412">
        <ele>849.46</ele>
        <time>2015-09-10T10:46:26Z</time>
      </trkpt>
      <trkpt lat="45.14335" lon="4.27403">
        <ele>845.14</ele>
        <time>2015-09-10T10:46:41Z</time>
      </trkpt>
      <trkpt lat="45.14319" lon="4.2738">
        <ele>843.21</ele>
        <time>2015-09-10T10:46:50Z</time>
      </trkpt>
      <trkpt lat="45.14291" lon="4.27372">
        <ele>842.73</ele>
        <time>2015-09-10T10:47:08Z</time>
      </trkpt>
      <trkpt lat="45.14266" lon="4.27357">
        <ele>839.85</ele>
        <time>2015-09-10T10:47:27Z</time>
      </trkpt>
      <trkpt lat="45.14238" lon="4.27348">
        <ele>840.81</ele>
        <time>2015-09-10T10:47:45Z</time>
      </trkpt>
      <trkpt lat="45.1421" lon="4.2735">
        <ele>840.33</ele>
        <time>2015-09-10T10:48:06Z</time>
      </trkpt>
      <trkpt lat="45.14208" lon="4.27354">
        <ele>840.81</ele>
        <time>2015-09-10T10:48:09Z</time>
      </trkpt>
      <trkpt lat="45.14221" lon="4.27392">
        <ele>844.18</ele>
        <time>2015-09-10T10:48:19Z</time>
      </trkpt>
      <trkpt lat="45.14265" lon="4.2747">
        <ele>849.46</ele>
        <time>2015-09-10T10:48:29Z</time>
      </trkpt>
      <trkpt lat="45.14343" lon="4.27584">
        <ele>856.67</ele>
        <time>2015-09-10T10:48:43Z</time>
      </trkpt>
      <trkpt lat="45.14369" lon="4.27635">
        <ele>857.63</ele>
        <time>2015-09-10T10:48:49Z</time>
      </trkpt>
      <trkpt lat="45.14401" lon="4.27683">
        <ele>857.63</ele>
        <time>2015-09-10T10:48:55Z</time>
      </trkpt>
      <trkpt lat="45.14443" lon="4.27712">
        <ele>860.04</ele>
        <time>2015-09-10T10:49:02Z</time>
      </trkpt>
      <trkpt lat="45.14467" lon="4.27737">
        <ele>867.73</ele>
        <time>2015-09-10T10:49:13Z</time>
      </trkpt>
      <trkpt lat="45.14474" lon="4.27764">
        <ele>873.98</ele>
        <time>2015-09-10T10:49:29Z</time>
      </trkpt>
      <trkpt lat="45.14486" lon="4.27797">
        <ele>874.94</ele>
        <time>2015-09-10T10:49:47Z</time>
      </trkpt>
      <trkpt lat="45.14492" lon="4.27833">
        <ele>876.86</ele>
        <time>2015-09-10T10:50:05Z</time>
      </trkpt>
      <trkpt lat="45.14493" lon="4.27868">
        <ele>879.74</ele>
        <time>2015-09-10T10:50:21Z</time>
      </trkpt>
      <trkpt lat="45.14491" lon="4.27908">
        <ele>880.22</ele>
        <time>2015-09-10T10:50:39Z</time>
      </trkpt>
      <trkpt lat="45.14489" lon="4.27934">
        <ele>879.74</ele>
        <time>2015-09-10T10:50:51Z</time>
      </trkpt>
      <trkpt lat="45.1449" lon="4.27969">
        <ele>877.82</ele>
        <time>2015-09-10T10:51:08Z</time>
      </trkpt>
      <trkpt lat="45.14495" lon="4.28005">
        <ele>876.86</ele>
        <time>2015-09-10T10:51:25Z</time>
      </trkpt>
      <trkpt lat="45.14494" lon="4.28041">
        <ele>876.38</ele>
        <time>2015-09-10T10:51:42Z</time>
      </trkpt>
      <trkpt lat="45.14476" lon="4.28075">
        <ele>879.74</ele>
        <time>2015-09-10T10:52:01Z</time>
      </trkpt>
      <trkpt lat="45.14457" lon="4.28108">
        <ele>881.19</ele>
        <time>2015-09-10T10:52:21Z</time>
      </trkpt>
      <trkpt lat="45.1444" lon="4.2814">
        <ele>882.15</ele>
        <time>2015-09-10T10:52:39Z</time>
      </trkpt>
      <trkpt lat="45.14423" lon="4.28171">
        <ele>882.15</ele>
        <time>2015-09-10T10:52:58Z</time>
      </trkpt>
      <trkpt lat="45.14406" lon="4.28207">
        <ele>883.59</ele>
        <time>2015-09-10T10:53:18Z</time>
      </trkpt>
      <trkpt lat="45.1439" lon="4.28244">
        <ele>883.59</ele>
        <time>2015-09-10T10:53:38Z</time>
      </trkpt>
      <trkpt lat="45.14381" lon="4.28278">
        <ele>886.47</ele>
        <time>2015-09-10T10:53:56Z</time>
      </trkpt>
      <trkpt lat="45.14375" lon="4.28312">
        <ele>887.43</ele>
        <time>2015-09-10T10:54:15Z</time>
      </trkpt>
      <trkpt lat="45.14376" lon="4.28349">
        <ele>886.47</ele>
        <time>2015-09-10T10:54:32Z</time>
      </trkpt>
      <trkpt lat="45.14376" lon="4.28362">
        <ele>886.95</ele>
        <time>2015-09-10T10:54:38Z</time>
      </trkpt>
      <trkpt lat="45.14355" lon="4.28372">
        <ele>888.88</ele>
        <time>2015-09-10T10:54:54Z</time>
      </trkpt>
      <trkpt lat="45.14331" lon="4.2838">
        <ele>889.36</ele>
        <time>2015-09-10T10:55:10Z</time>
      </trkpt>
      <trkpt lat="45.14324" lon="4.28386">
        <ele>889.84</ele>
        <time>2015-09-10T10:55:24Z</time>
      </trkpt>
      <trkpt lat="45.14298" lon="4.28399">
        <ele>889.36</ele>
        <time>2015-09-10T10:55:44Z</time>
      </trkpt>
      <trkpt lat="45.1427" lon="4.28412">
        <ele>890.32</ele>
        <time>2015-09-10T10:56:05Z</time>
      </trkpt>
      <trkpt lat="45.14245" lon="4.28436">
        <ele>890.32</ele>
        <time>2015-09-10T10:56:25Z</time>
      </trkpt>
      <trkpt lat="45.14224" lon="4.28452">
        <ele>891.28</ele>
        <time>2015-09-10T10:56:43Z</time>
      </trkpt>
      <trkpt lat="45.14212" lon="4.28445">
        <ele>891.28</ele>
        <time>2015-09-10T10:56:50Z</time>
      </trkpt>
      <trkpt lat="45.14199" lon="4.28437">
        <ele>890.8</ele>
        <time>2015-09-10T10:56:53Z</time>
      </trkpt>
      <trkpt lat="45.14174" lon="4.28427">
        <ele>890.32</ele>
        <time>2015-09-10T10:56:58Z</time>
      </trkpt>
      <trkpt lat="45.14091" lon="4.284">
        <ele>887.43</ele>
        <time>2015-09-10T10:57:13Z</time>
      </trkpt>
      <trkpt lat="45.14066" lon="4.28392">
        <ele>884.55</ele>
        <time>2015-09-10T10:57:25Z</time>
      </trkpt>
      <trkpt lat="45.14045" lon="4.28373">
        <ele>880.22</ele>
        <time>2015-09-10T10:57:41Z</time>
      </trkpt>
      <trkpt lat="45.1402" lon="4.28359">
        <ele>882.63</ele>
        <time>2015-09-10T10:57:55Z</time>
      </trkpt>
      <trkpt lat="45.13986" lon="4.28358">
        <ele>880.22</ele>
        <time>2015-09-10T10:58:13Z</time>
      </trkpt>
      <trkpt lat="45.1396" lon="4.28367">
        <ele>879.26</ele>
        <time>2015-09-10T10:58:28Z</time>
      </trkpt>
      <trkpt lat="45.13934" lon="4.28367">
        <ele>878.78</ele>
        <time>2015-09-10T10:58:47Z</time>
      </trkpt>
      <trkpt lat="45.13909" lon="4.28368">
        <ele>876.86</ele>
        <time>2015-09-10T10:59:04Z</time>
      </trkpt>
      <trkpt lat="45.1389" lon="4.28368">
        <ele>875.42</ele>
        <time>2015-09-10T10:59:17Z</time>
      </trkpt>
      <trkpt lat="45.13883" lon="4.28366">
        <ele>874.46</ele>
        <time>2015-09-10T10:59:23Z</time>
      </trkpt>
      <trkpt lat="45.13861" lon="4.2836">
        <ele>869.65</ele>
        <time>2015-09-10T10:59:39Z</time>
      </trkpt>
      <trkpt lat="45.13834" lon="4.28358">
        <ele>866.29</ele>
        <time>2015-09-10T10:59:57Z</time>
      </trkpt>
      <trkpt lat="45.13812" lon="4.28356">
        <ele>866.29</ele>
        <time>2015-09-10T11:00:13Z</time>
      </trkpt>
      <trkpt lat="45.13801" lon="4.28369">
        <ele>864.36</ele>
        <time>2015-09-10T11:00:26Z</time>
      </trkpt>
      <trkpt lat="45.13791" lon="4.2839">
        <ele>861.48</ele>
        <time>2015-09-10T11:00:40Z</time>
      </trkpt>
      <trkpt lat="45.13781" lon="4.28399">
        <ele>860.52</ele>
        <time>2015-09-10T11:00:45Z</time>
      </trkpt>
      <trkpt lat="45.13738" lon="4.28449">
        <ele>859.56</ele>
        <time>2015-09-10T11:00:54Z</time>
      </trkpt>
      <trkpt lat="45.13696" lon="4.28508">
        <ele>863.4</ele>
        <time>2015-09-10T11:01:06Z</time>
      </trkpt>
      <trkpt lat="45.13691" lon="4.28514">
        <ele>863.88</ele>
        <time>2015-09-10T11:01:26Z</time>
      </trkpt>
      <trkpt lat="45.13687" lon="4.2852">
        <ele>864.84</ele>
        <time>2015-09-10T11:01:51Z</time>
      </trkpt>
      <trkpt lat="45.13678" lon="4.28533">
        <ele>865.32</ele>
        <time>2015-09-10T11:02:13Z</time>
      </trkpt>
      <trkpt lat="45.13659" lon="4.28546">
        <ele>863.4</ele>
        <time>2015-09-10T11:02:30Z</time>
      </trkpt>
      <trkpt lat="45.13642" lon="4.2855">
        <ele>860.52</ele>
        <time>2015-09-10T11:02:46Z</time>
      </trkpt>
      <trkpt lat="45.13619" lon="4.28549">
        <ele>856.67</ele>
        <time>2015-09-10T11:03:08Z</time>
      </trkpt>
      <trkpt lat="45.13595" lon="4.28553">
        <ele>855.23</ele>
        <time>2015-09-10T11:03:26Z</time>
      </trkpt>
      <trkpt lat="45.13569" lon="4.28569">
        <ele>854.27</ele>
        <time>2015-09-10T11:03:44Z</time>
      </trkpt>
      <trkpt lat="45.13555" lon="4.28571">
        <ele>850.9</ele>
        <time>2015-09-10T11:03:55Z</time>
      </trkpt>
      <trkpt lat="45.13526" lon="4.28576">
        <ele>847.54</ele>
        <time>2015-09-10T11:04:15Z</time>
      </trkpt>
      <trkpt lat="45.13505" lon="4.28581">
        <ele>848.5</ele>
        <time>2015-09-10T11:04:30Z</time>
      </trkpt>
      <trkpt lat="45.13484" lon="4.2858">
        <ele>846.1</ele>
        <time>2015-09-10T11:04:46Z</time>
      </trkpt>
      <trkpt lat="45.13459" lon="4.2858">
        <ele>843.21</ele>
        <time>2015-09-10T11:05:02Z</time>
      </trkpt>
      <trkpt lat="45.13434" lon="4.28568">
        <ele>838.41</ele>
        <time>2015-09-10T11:05:20Z</time>
      </trkpt>
      <trkpt lat="45.13413" lon="4.28568">
        <ele>836</ele>
        <time>2015-09-10T11:05:34Z</time>
      </trkpt>
      <trkpt lat="45.13388" lon="4.28576">
        <ele>830.72</ele>
        <time>2015-09-10T11:05:51Z</time>
      </trkpt>
      <trkpt lat="45.13365" lon="4.28582">
        <ele>825.91</ele>
        <time>2015-09-10T11:06:08Z</time>
      </trkpt>
      <trkpt lat="45.13338" lon="4.28575">
        <ele>822.06</ele>
        <time>2015-09-10T11:06:27Z</time>
      </trkpt>
      <trkpt lat="45.13327" lon="4.28568">
        <ele>821.1</ele>
        <time>2015-09-10T11:06:37Z</time>
      </trkpt>
      <trkpt lat="45.13317" lon="4.2856">
        <ele>820.62</ele>
        <time>2015-09-10T11:06:45Z</time>
      </trkpt>
      <trkpt lat="45.13297" lon="4.28552">
        <ele>821.58</ele>
        <time>2015-09-10T11:07:03Z</time>
      </trkpt>
      <trkpt lat="45.13277" lon="4.28545">
        <ele>825.91</ele>
        <time>2015-09-10T11:07:21Z</time>
      </trkpt>
      <trkpt lat="45.1326" lon="4.28517">
        <ele>830.24</ele>
        <time>2015-09-10T11:07:38Z</time>
      </trkpt>
      <trkpt lat="45.13231" lon="4.28487">
        <ele>835.52</ele>
        <time>2015-09-10T11:07:58Z</time>
      </trkpt>
      <trkpt lat="45.13211" lon="4.28463">
        <ele>834.08</ele>
        <time>2015-09-10T11:08:14Z</time>
      </trkpt>
      <trkpt lat="45.13206" lon="4.28457">
        <ele>831.68</ele>
        <time>2015-09-10T11:08:31Z</time>
      </trkpt>
      <trkpt lat="45.13206" lon="4.28456">
        <ele>832.64</ele>
        <time>2015-09-10T11:09:01Z</time>
      </trkpt>
      <trkpt lat="45.13206" lon="4.28456">
        <ele>832.64</ele>
        <time>2015-09-10T11:09:41Z</time>
      </trkpt>
      <trkpt lat="45.13208" lon="4.28458">
        <ele>830.24</ele>
        <time>2015-09-10T11:10:22Z</time>
      </trkpt>
      <trkpt lat="45.13209" lon="4.28453">
        <ele>830.24</ele>
        <time>2015-09-10T11:10:56Z</time>
      </trkpt>
      <trkpt lat="45.1322" lon="4.28444">
        <ele>828.31</ele>
        <time>2015-09-10T11:11:09Z</time>
      </trkpt>
      <trkpt lat="45.13249" lon="4.28429">
        <ele>826.39</ele>
        <time>2015-09-10T11:11:30Z</time>
      </trkpt>
      <trkpt lat="45.13253" lon="4.28428">
        <ele>825.91</ele>
        <time>2015-09-10T11:11:33Z</time>
      </trkpt>
      <trkpt lat="45.13275" lon="4.28434">
        <ele>823.99</ele>
        <time>2015-09-10T11:11:50Z</time>
      </trkpt>
      <trkpt lat="45.13294" lon="4.28425">
        <ele>823.51</ele>
        <time>2015-09-10T11:12:08Z</time>
      </trkpt>
      <trkpt lat="45.133" lon="4.28419">
        <ele>823.03</ele>
        <time>2015-09-10T11:12:25Z</time>
      </trkpt>
      <trkpt lat="45.13301" lon="4.28418">
        <ele>821.58</ele>
        <time>2015-09-10T11:12:38Z</time>
      </trkpt>
      <trkpt lat="45.133" lon="4.28416">
        <ele>821.58</ele>
        <time>2015-09-10T11:12:57Z</time>
      </trkpt>
      <trkpt lat="45.13301" lon="4.28417">
        <ele>820.14</ele>
        <time>2015-09-10T11:13:16Z</time>
      </trkpt>
      <trkpt lat="45.13302" lon="4.28417">
        <ele>820.62</ele>
        <time>2015-09-10T11:13:39Z</time>
      </trkpt>
      <trkpt lat="45.13301" lon="4.28415">
        <ele>820.14</ele>
        <time>2015-09-10T11:14:09Z</time>
      </trkpt>
      <trkpt lat="45.13302" lon="4.28416">
        <ele>820.62</ele>
        <time>2015-09-10T11:14:35Z</time>
      </trkpt>
      <trkpt lat="45.13301" lon="4.28416">
        <ele>820.14</ele>
        <time>2015-09-10T11:15:01Z</time>
      </trkpt>
      <trkpt lat="45.13301" lon="4.28417">
        <ele>820.62</ele>
        <time>2015-09-10T11:15:25Z</time>
      </trkpt>
      <trkpt lat="45.13302" lon="4.28415">
        <ele>821.1</ele>
        <time>2015-09-10T11:15:46Z</time>
      </trkpt>
      <trkpt lat="45.13302" lon="4.28414">
        <ele>821.58</ele>
        <time>2015-09-10T11:15:50Z</time>
      </trkpt>
      <trkpt lat="45.13304" lon="4.2842">
        <ele>821.58</ele>
        <time>2015-09-10T11:16:05Z</time>
      </trkpt>
      <trkpt lat="45.13305" lon="4.28418">
        <ele>821.58</ele>
        <time>2015-09-10T11:16:22Z</time>
      </trkpt>
      <trkpt lat="45.13304" lon="4.28418">
        <ele>823.03</ele>
        <time>2015-09-10T11:16:46Z</time>
      </trkpt>
      <trkpt lat="45.13303" lon="4.28416">
        <ele>823.99</ele>
        <time>2015-09-10T11:17:15Z</time>
      </trkpt>
      <trkpt lat="45.13302" lon="4.28417">
        <ele>825.43</ele>
        <time>2015-09-10T11:17:50Z</time>
      </trkpt>
      <trkpt lat="45.13299" lon="4.28416">
        <ele>826.87</ele>
        <time>2015-09-10T11:18:13Z</time>
      </trkpt>
      <trkpt lat="45.13299" lon="4.28416">
        <ele>825.91</ele>
        <time>2015-09-10T11:18:48Z</time>
      </trkpt>
      <trkpt lat="45.13299" lon="4.28416">
        <ele>826.87</ele>
        <time>2015-09-10T11:19:13Z</time>
      </trkpt>
      <trkpt lat="45.13298" lon="4.28417">
        <ele>825.91</ele>
        <time>2015-09-10T11:19:40Z</time>
      </trkpt>
      <trkpt lat="45.13299" lon="4.28417">
        <ele>825.43</ele>
        <time>2015-09-10T11:20:15Z</time>
      </trkpt>
      <trkpt lat="45.13301" lon="4.28417">
        <ele>826.39</ele>
        <time>2015-09-10T11:20:56Z</time>
      </trkpt>
      <trkpt lat="45.133" lon="4.28416">
        <ele>827.83</ele>
        <time>2015-09-10T11:21:32Z</time>
      </trkpt>
      <trkpt lat="45.13299" lon="4.28415">
        <ele>828.31</ele>
        <time>2015-09-10T11:22:12Z</time>
      </trkpt>
      <trkpt lat="45.133" lon="4.28416">
        <ele>827.83</ele>
        <time>2015-09-10T11:22:44Z</time>
      </trkpt>
      <trkpt lat="45.13301" lon="4.28419">
        <ele>827.83</ele>
        <time>2015-09-10T11:23:16Z</time>
      </trkpt>
      <trkpt lat="45.133" lon="4.28418">
        <ele>828.31</ele>
        <time>2015-09-10T11:23:49Z</time>
      </trkpt>
      <trkpt lat="45.133" lon="4.28415">
        <ele>829.76</ele>
        <time>2015-09-10T11:24:29Z</time>
      </trkpt>
      <trkpt lat="45.13299" lon="4.28416">
        <ele>829.76</ele>
        <time>2015-09-10T11:24:52Z</time>
      </trkpt>
      <trkpt lat="45.13299" lon="4.28415">
        <ele>827.83</ele>
        <time>2015-09-10T11:25:15Z</time>
      </trkpt>
      <trkpt lat="45.13298" lon="4.28416">
        <ele>828.31</ele>
        <time>2015-09-10T11:25:51Z</time>
      </trkpt>
      <trkpt lat="45.13299" lon="4.28417">
        <ele>828.31</ele>
        <time>2015-09-10T11:26:09Z</time>
      </trkpt>
      <trkpt lat="45.133" lon="4.28417">
        <ele>828.79</ele>
        <time>2015-09-10T11:26:40Z</time>
      </trkpt>
      <trkpt lat="45.133" lon="4.28417">
        <ele>828.79</ele>
        <time>2015-09-10T11:27:16Z</time>
      </trkpt>
      <trkpt lat="45.13299" lon="4.28418">
        <ele>829.27</ele>
        <time>2015-09-10T11:27:52Z</time>
      </trkpt>
      <trkpt lat="45.13298" lon="4.28416">
        <ele>828.31</ele>
        <time>2015-09-10T11:28:31Z</time>
      </trkpt>
      <trkpt lat="45.13298" lon="4.28416">
        <ele>827.83</ele>
        <time>2015-09-10T11:29:08Z</time>
      </trkpt>
      <trkpt lat="45.13298" lon="4.28416">
        <ele>828.31</ele>
        <time>2015-09-10T11:29:44Z</time>
      </trkpt>
      <trkpt lat="45.13298" lon="4.28417">
        <ele>828.31</ele>
        <time>2015-09-10T11:30:18Z</time>
      </trkpt>
      <trkpt lat="45.13299" lon="4.28417">
        <ele>828.31</ele>
        <time>2015-09-10T11:30:54Z</time>
      </trkpt>
      <trkpt lat="45.13299" lon="4.28417">
        <ele>828.31</ele>
        <time>2015-09-10T11:31:21Z</time>
      </trkpt>
      <trkpt lat="45.13299" lon="4.28417">
        <ele>830.24</ele>
        <time>2015-09-10T11:31:59Z</time>
      </trkpt>
      <trkpt lat="45.133" lon="4.28417">
        <ele>830.24</ele>
        <time>2015-09-10T11:32:40Z</time>
      </trkpt>
      <trkpt lat="45.133" lon="4.28418">
        <ele>830.24</ele>
        <time>2015-09-10T11:33:19Z</time>
      </trkpt>
      <trkpt lat="45.133" lon="4.28418">
        <ele>829.76</ele>
        <time>2015-09-10T11:33:52Z</time>
      </trkpt>
      <trkpt lat="45.133" lon="4.28417">
        <ele>829.27</ele>
        <time>2015-09-10T11:34:31Z</time>
      </trkpt>
      <trkpt lat="45.13299" lon="4.28418">
        <ele>831.2</ele>
        <time>2015-09-10T11:35:01Z</time>
      </trkpt>
      <trkpt lat="45.13299" lon="4.28419">
        <ele>831.2</ele>
        <time>2015-09-10T11:35:34Z</time>
      </trkpt>
      <trkpt lat="45.133" lon="4.28418">
        <ele>831.68</ele>
        <time>2015-09-10T11:36:10Z</time>
      </trkpt>
      <trkpt lat="45.133" lon="4.28418">
        <ele>833.12</ele>
        <time>2015-09-10T11:36:43Z</time>
      </trkpt>
      <trkpt lat="45.13301" lon="4.28419">
        <ele>834.08</ele>
        <time>2015-09-10T11:37:22Z</time>
      </trkpt>
      <trkpt lat="45.133" lon="4.28419">
        <ele>834.08</ele>
        <time>2015-09-10T11:38:03Z</time>
      </trkpt>
      <trkpt lat="45.133" lon="4.2842">
        <ele>834.56</ele>
        <time>2015-09-10T11:38:32Z</time>
      </trkpt>
      <trkpt lat="45.13301" lon="4.28419">
        <ele>835.04</ele>
        <time>2015-09-10T11:39:03Z</time>
      </trkpt>
      <trkpt lat="45.13301" lon="4.28419">
        <ele>834.08</ele>
        <time>2015-09-10T11:39:32Z</time>
      </trkpt>
      <trkpt lat="45.13301" lon="4.2842">
        <ele>834.08</ele>
        <time>2015-09-10T11:40:07Z</time>
      </trkpt>
      <trkpt lat="45.133" lon="4.28419">
        <ele>833.6</ele>
        <time>2015-09-10T11:40:33Z</time>
      </trkpt>
      <trkpt lat="45.133" lon="4.28419">
        <ele>833.12</ele>
        <time>2015-09-10T11:40:55Z</time>
      </trkpt>
      <trkpt lat="45.13301" lon="4.28419">
        <ele>833.12</ele>
        <time>2015-09-10T11:41:25Z</time>
      </trkpt>
      <trkpt lat="45.133" lon="4.28418">
        <ele>832.16</ele>
        <time>2015-09-10T11:41:49Z</time>
      </trkpt>
      <trkpt lat="45.133" lon="4.28418">
        <ele>831.68</ele>
        <time>2015-09-10T11:42:17Z</time>
      </trkpt>
      <trkpt lat="45.133" lon="4.28419">
        <ele>831.68</ele>
        <time>2015-09-10T11:42:44Z</time>
      </trkpt>
      <trkpt lat="45.133" lon="4.28421">
        <ele>832.16</ele>
        <time>2015-09-10T11:43:17Z</time>
      </trkpt>
      <trkpt lat="45.133" lon="4.2842">
        <ele>833.12</ele>
        <time>2015-09-10T11:43:51Z</time>
      </trkpt>
      <trkpt lat="45.133" lon="4.28418">
        <ele>833.6</ele>
        <time>2015-09-10T11:44:28Z</time>
      </trkpt>
      <trkpt lat="45.133" lon="4.28417">
        <ele>832.16</ele>
        <time>2015-09-10T11:45:03Z</time>
      </trkpt>
      <trkpt lat="45.133" lon="4.28418">
        <ele>831.68</ele>
        <time>2015-09-10T11:45:39Z</time>
      </trkpt>
      <trkpt lat="45.13299" lon="4.28418">
        <ele>831.68</ele>
        <time>2015-09-10T11:46:08Z</time>
      </trkpt>
      <trkpt lat="45.13299" lon="4.28417">
        <ele>831.2</ele>
        <time>2015-09-10T11:46:35Z</time>
      </trkpt>
      <trkpt lat="45.13299" lon="4.28417">
        <ele>831.2</ele>
        <time>2015-09-10T11:47:07Z</time>
      </trkpt>
      <trkpt lat="45.13299" lon="4.28418">
        <ele>831.2</ele>
        <time>2015-09-10T11:47:43Z</time>
      </trkpt>
      <trkpt lat="45.133" lon="4.28419">
        <ele>830.72</ele>
        <time>2015-09-10T11:48:20Z</time>
      </trkpt>
      <trkpt lat="45.13299" lon="4.28418">
        <ele>830.72</ele>
        <time>2015-09-10T11:48:47Z</time>
      </trkpt>
      <trkpt lat="45.13299" lon="4.28418">
        <ele>831.68</ele>
        <time>2015-09-10T11:49:17Z</time>
      </trkpt>
      <trkpt lat="45.13299" lon="4.28418">
        <ele>832.64</ele>
        <time>2015-09-10T11:49:43Z</time>
      </trkpt>
      <trkpt lat="45.133" lon="4.28419">
        <ele>832.16</ele>
        <time>2015-09-10T11:50:16Z</time>
      </trkpt>
      <trkpt lat="45.133" lon="4.28418">
        <ele>831.68</ele>
        <time>2015-09-10T11:50:38Z</time>
      </trkpt>
      <trkpt lat="45.13299" lon="4.28418">
        <ele>831.2</ele>
        <time>2015-09-10T11:51:02Z</time>
      </trkpt>
      <trkpt lat="45.13299" lon="4.28417">
        <ele>831.68</ele>
        <time>2015-09-10T11:51:29Z</time>
      </trkpt>
      <trkpt lat="45.13299" lon="4.28417">
        <ele>832.16</ele>
        <time>2015-09-10T11:51:52Z</time>
      </trkpt>
      <trkpt lat="45.133" lon="4.28417">
        <ele>833.12</ele>
        <time>2015-09-10T11:52:26Z</time>
      </trkpt>
      <trkpt lat="45.13304" lon="4.28421">
        <ele>832.64</ele>
        <time>2015-09-10T11:52:40Z</time>
      </trkpt>
      <trkpt lat="45.13303" lon="4.28421">
        <ele>832.64</ele>
        <time>2015-09-10T11:52:51Z</time>
      </trkpt>
      <trkpt lat="45.13299" lon="4.28418">
        <ele>831.68</ele>
        <time>2015-09-10T11:53:06Z</time>
      </trkpt>
      <trkpt lat="45.13299" lon="4.28418">
        <ele>831.2</ele>
        <time>2015-09-10T11:53:32Z</time>
      </trkpt>
      <trkpt lat="45.133" lon="4.28418">
        <ele>831.2</ele>
        <time>2015-09-10T11:53:52Z</time>
      </trkpt>
      <trkpt lat="45.133" lon="4.28418">
        <ele>830.72</ele>
        <time>2015-09-10T11:54:16Z</time>
      </trkpt>
      <trkpt lat="45.133" lon="4.28417">
        <ele>830.24</ele>
        <time>2015-09-10T11:54:46Z</time>
      </trkpt>
      <trkpt lat="45.133" lon="4.28417">
        <ele>829.76</ele>
        <time>2015-09-10T11:55:14Z</time>
      </trkpt>
      <trkpt lat="45.133" lon="4.28416">
        <ele>829.27</ele>
        <time>2015-09-10T11:55:38Z</time>
      </trkpt>
      <trkpt lat="45.133" lon="4.28417">
        <ele>829.76</ele>
        <time>2015-09-10T11:56:03Z</time>
      </trkpt>
      <trkpt lat="45.133" lon="4.28416">
        <ele>828.79</ele>
        <time>2015-09-10T11:56:38Z</time>
      </trkpt>
      <trkpt lat="45.13301" lon="4.28415">
        <ele>828.79</ele>
        <time>2015-09-10T11:57:06Z</time>
      </trkpt>
      <trkpt lat="45.133" lon="4.28416">
        <ele>828.31</ele>
        <time>2015-09-10T11:57:31Z</time>
      </trkpt>
      <trkpt lat="45.133" lon="4.28416">
        <ele>827.83</ele>
        <time>2015-09-10T11:57:53Z</time>
      </trkpt>
      <trkpt lat="45.133" lon="4.28415">
        <ele>827.83</ele>
        <time>2015-09-10T11:58:20Z</time>
      </trkpt>
      <trkpt lat="45.133" lon="4.28416">
        <ele>827.83</ele>
        <time>2015-09-10T11:58:45Z</time>
      </trkpt>
      <trkpt lat="45.133" lon="4.28416">
        <ele>827.83</ele>
        <time>2015-09-10T11:59:09Z</time>
      </trkpt>
      <trkpt lat="45.133" lon="4.28416">
        <ele>827.35</ele>
        <time>2015-09-10T11:59:42Z</time>
      </trkpt>
      <trkpt lat="45.13298" lon="4.28415">
        <ele>826.87</ele>
        <time>2015-09-10T12:00:05Z</time>
      </trkpt>
      <trkpt lat="45.13299" lon="4.28416">
        <ele>826.87</ele>
        <time>2015-09-10T12:00:38Z</time>
      </trkpt>
      <trkpt lat="45.13299" lon="4.28415">
        <ele>826.87</ele>
        <time>2015-09-10T12:01:11Z</time>
      </trkpt>
      <trkpt lat="45.13297" lon="4.28414">
        <ele>826.39</ele>
        <time>2015-09-10T12:01:38Z</time>
      </trkpt>
      <trkpt lat="45.13296" lon="4.28414">
        <ele>824.47</ele>
        <time>2015-09-10T12:02:07Z</time>
      </trkpt>
      <trkpt lat="45.13296" lon="4.28414">
        <ele>824.95</ele>
        <time>2015-09-10T12:02:44Z</time>
      </trkpt>
      <trkpt lat="45.13301" lon="4.28418">
        <ele>824.47</ele>
        <time>2015-09-10T12:03:22Z</time>
      </trkpt>
      <trkpt lat="45.13305" lon="4.28419">
        <ele>824.95</ele>
        <time>2015-09-10T12:03:25Z</time>
      </trkpt>
      <trkpt lat="45.13313" lon="4.28419">
        <ele>825.43</ele>
        <time>2015-09-10T12:03:30Z</time>
      </trkpt>
      <trkpt lat="45.13332" lon="4.28417">
        <ele>827.83</ele>
        <time>2015-09-10T12:03:47Z</time>
      </trkpt>
      <trkpt lat="45.13319" lon="4.28394">
        <ele>829.27</ele>
        <time>2015-09-10T12:04:05Z</time>
      </trkpt>
      <trkpt lat="45.13293" lon="4.28381">
        <ele>831.68</ele>
        <time>2015-09-10T12:04:29Z</time>
      </trkpt>
      <trkpt lat="45.13276" lon="4.28356">
        <ele>832.64</ele>
        <time>2015-09-10T12:04:49Z</time>
      </trkpt>
      <trkpt lat="45.13259" lon="4.28332">
        <ele>835.52</ele>
        <time>2015-09-10T12:05:09Z</time>
      </trkpt>
      <trkpt lat="45.13242" lon="4.28303">
        <ele>839.37</ele>
        <time>2015-09-10T12:05:35Z</time>
      </trkpt>
      <trkpt lat="45.13226" lon="4.28265">
        <ele>843.69</ele>
        <time>2015-09-10T12:05:58Z</time>
      </trkpt>
      <trkpt lat="45.13213" lon="4.28218">
        <ele>846.1</ele>
        <time>2015-09-10T12:06:23Z</time>
      </trkpt>
      <trkpt lat="45.13215" lon="4.28187">
        <ele>847.54</ele>
        <time>2015-09-10T12:06:40Z</time>
      </trkpt>
      <trkpt lat="45.13233" lon="4.28147">
        <ele>845.14</ele>
        <time>2015-09-10T12:07:05Z</time>
      </trkpt>
      <trkpt lat="45.13251" lon="4.28121">
        <ele>845.62</ele>
        <time>2015-09-10T12:07:23Z</time>
      </trkpt>
      <trkpt lat="45.13256" lon="4.28081">
        <ele>850.9</ele>
        <time>2015-09-10T12:07:44Z</time>
      </trkpt>
      <trkpt lat="45.13261" lon="4.28054">
        <ele>854.27</ele>
        <time>2015-09-10T12:08:00Z</time>
      </trkpt>
      <trkpt lat="45.13284" lon="4.28031">
        <ele>857.15</ele>
        <time>2015-09-10T12:08:22Z</time>
      </trkpt>
      <trkpt lat="45.13312" lon="4.28003">
        <ele>857.63</ele>
        <time>2015-09-10T12:08:47Z</time>
      </trkpt>
      <trkpt lat="45.13343" lon="4.27994">
        <ele>856.19</ele>
        <time>2015-09-10T12:09:09Z</time>
      </trkpt>
      <trkpt lat="45.13373" lon="4.27985">
        <ele>857.63</ele>
        <time>2015-09-10T12:09:30Z</time>
      </trkpt>
      <trkpt lat="45.13399" lon="4.27973">
        <ele>856.19</ele>
        <time>2015-09-10T12:09:50Z</time>
      </trkpt>
      <trkpt lat="45.13412" lon="4.27945">
        <ele>854.27</ele>
        <time>2015-09-10T12:10:06Z</time>
      </trkpt>
      <trkpt lat="45.13415" lon="4.27905">
        <ele>854.27</ele>
        <time>2015-09-10T12:10:24Z</time>
      </trkpt>
      <trkpt lat="45.13409" lon="4.27878">
        <ele>856.67</ele>
        <time>2015-09-10T12:10:39Z</time>
      </trkpt>
      <trkpt lat="45.13401" lon="4.27847">
        <ele>858.11</ele>
        <time>2015-09-10T12:10:55Z</time>
      </trkpt>
      <trkpt lat="45.13381" lon="4.27803">
        <ele>858.11</ele>
        <time>2015-09-10T12:11:24Z</time>
      </trkpt>
      <trkpt lat="45.13361" lon="4.27768">
        <ele>858.59</ele>
        <time>2015-09-10T12:11:48Z</time>
      </trkpt>
      <trkpt lat="45.13337" lon="4.27731">
        <ele>860.52</ele>
        <time>2015-09-10T12:12:16Z</time>
      </trkpt>
      <trkpt lat="45.13317" lon="4.27711">
        <ele>861.48</ele>
        <time>2015-09-10T12:12:29Z</time>
      </trkpt>
      <trkpt lat="45.1329" lon="4.27687">
        <ele>861.96</ele>
        <time>2015-09-10T12:12:52Z</time>
      </trkpt>
      <trkpt lat="45.13266" lon="4.27663">
        <ele>863.88</ele>
        <time>2015-09-10T12:13:14Z</time>
      </trkpt>
      <trkpt lat="45.13243" lon="4.27647">
        <ele>862.92</ele>
        <time>2015-09-10T12:13:33Z</time>
      </trkpt>
      <trkpt lat="45.13222" lon="4.27633">
        <ele>863.4</ele>
        <time>2015-09-10T12:13:50Z</time>
      </trkpt>
      <trkpt lat="45.13193" lon="4.27637">
        <ele>862.92</ele>
        <time>2015-09-10T12:14:11Z</time>
      </trkpt>
      <trkpt lat="45.13161" lon="4.27639">
        <ele>861.96</ele>
        <time>2015-09-10T12:14:28Z</time>
      </trkpt>
      <trkpt lat="45.13143" lon="4.27628">
        <ele>861.96</ele>
        <time>2015-09-10T12:14:38Z</time>
      </trkpt>
      <trkpt lat="45.13122" lon="4.27601">
        <ele>865.32</ele>
        <time>2015-09-10T12:14:59Z</time>
      </trkpt>
      <trkpt lat="45.1312" lon="4.27599">
        <ele>866.29</ele>
        <time>2015-09-10T12:15:01Z</time>
      </trkpt>
      <trkpt lat="45.13115" lon="4.27594">
        <ele>868.21</ele>
        <time>2015-09-10T12:15:18Z</time>
      </trkpt>
      <trkpt lat="45.13118" lon="4.27593">
        <ele>868.69</ele>
        <time>2015-09-10T12:15:38Z</time>
      </trkpt>
      <trkpt lat="45.13123" lon="4.27593">
        <ele>869.65</ele>
        <time>2015-09-10T12:15:42Z</time>
      </trkpt>
      <trkpt lat="45.13141" lon="4.27597">
        <ele>868.69</ele>
        <time>2015-09-10T12:15:55Z</time>
      </trkpt>
      <trkpt lat="45.13144" lon="4.27572">
        <ele>866.77</ele>
        <time>2015-09-10T12:16:11Z</time>
      </trkpt>
      <trkpt lat="45.13141" lon="4.27533">
        <ele>866.77</ele>
        <time>2015-09-10T12:16:31Z</time>
      </trkpt>
      <trkpt lat="45.13141" lon="4.27518">
        <ele>866.29</ele>
        <time>2015-09-10T12:16:39Z</time>
      </trkpt>
      <trkpt lat="45.13147" lon="4.27495">
        <ele>865.32</ele>
        <time>2015-09-10T12:16:50Z</time>
      </trkpt>
      <trkpt lat="45.13192" lon="4.27442">
        <ele>864.36</ele>
        <time>2015-09-10T12:17:01Z</time>
      </trkpt>
      <trkpt lat="45.13205" lon="4.27424">
        <ele>862.92</ele>
        <time>2015-09-10T12:17:11Z</time>
      </trkpt>
      <trkpt lat="45.13206" lon="4.27406">
        <ele>860.52</ele>
        <time>2015-09-10T12:17:23Z</time>
      </trkpt>
      <trkpt lat="45.13191" lon="4.27371">
        <ele>858.59</ele>
        <time>2015-09-10T12:17:43Z</time>
      </trkpt>
      <trkpt lat="45.13183" lon="4.27363">
        <ele>858.11</ele>
        <time>2015-09-10T12:17:51Z</time>
      </trkpt>
      <trkpt lat="45.1315" lon="4.27352">
        <ele>858.59</ele>
        <time>2015-09-10T12:18:18Z</time>
      </trkpt>
      <trkpt lat="45.13115" lon="4.27354">
        <ele>861</ele>
        <time>2015-09-10T12:18:44Z</time>
      </trkpt>
      <trkpt lat="45.13088" lon="4.27345">
        <ele>868.69</ele>
        <time>2015-09-10T12:19:06Z</time>
      </trkpt>
      <trkpt lat="45.13062" lon="4.27339">
        <ele>872.05</ele>
        <time>2015-09-10T12:19:27Z</time>
      </trkpt>
      <trkpt lat="45.13061" lon="4.27338">
        <ele>872.53</ele>
        <time>2015-09-10T12:19:28Z</time>
      </trkpt>
      <trkpt lat="45.13067" lon="4.27326">
        <ele>874.46</ele>
        <time>2015-09-10T12:19:34Z</time>
      </trkpt>
      <trkpt lat="45.13092" lon="4.27296">
        <ele>877.34</ele>
        <time>2015-09-10T12:19:57Z</time>
      </trkpt>
      <trkpt lat="45.13124" lon="4.27279">
        <ele>879.26</ele>
        <time>2015-09-10T12:20:20Z</time>
      </trkpt>
      <trkpt lat="45.13159" lon="4.27263">
        <ele>881.67</ele>
        <time>2015-09-10T12:20:37Z</time>
      </trkpt>
      <trkpt lat="45.13188" lon="4.27256">
        <ele>882.63</ele>
        <time>2015-09-10T12:20:59Z</time>
      </trkpt>
      <trkpt lat="45.13222" lon="4.27249">
        <ele>881.67</ele>
        <time>2015-09-10T12:21:24Z</time>
      </trkpt>
      <trkpt lat="45.13255" lon="4.27233">
        <ele>882.15</ele>
        <time>2015-09-10T12:21:52Z</time>
      </trkpt>
      <trkpt lat="45.13279" lon="4.27202">
        <ele>880.22</ele>
        <time>2015-09-10T12:22:11Z</time>
      </trkpt>
      <trkpt lat="45.13315" lon="4.27174">
        <ele>879.26</ele>
        <time>2015-09-10T12:22:20Z</time>
      </trkpt>
      <trkpt lat="45.13404" lon="4.27101">
        <ele>876.86</ele>
        <time>2015-09-10T12:22:37Z</time>
      </trkpt>
      <trkpt lat="45.13476" lon="4.26995">
        <ele>873.5</ele>
        <time>2015-09-10T12:22:53Z</time>
      </trkpt>
      <trkpt lat="45.13492" lon="4.26975">
        <ele>871.09</ele>
        <time>2015-09-10T12:23:01Z</time>
      </trkpt>
      <trkpt lat="45.13518" lon="4.26954">
        <ele>866.77</ele>
        <time>2015-09-10T12:23:19Z</time>
      </trkpt>
      <trkpt lat="45.13538" lon="4.2694">
        <ele>861.96</ele>
        <time>2015-09-10T12:23:36Z</time>
      </trkpt>
      <trkpt lat="45.13554" lon="4.26924">
        <ele>859.56</ele>
        <time>2015-09-10T12:23:52Z</time>
      </trkpt>
      <trkpt lat="45.13569" lon="4.26901">
        <ele>857.15</ele>
        <time>2015-09-10T12:24:07Z</time>
      </trkpt>
      <trkpt lat="45.13575" lon="4.26888">
        <ele>855.23</ele>
        <time>2015-09-10T12:24:18Z</time>
      </trkpt>
      <trkpt lat="45.13562" lon="4.26876">
        <ele>852.83</ele>
        <time>2015-09-10T12:24:34Z</time>
      </trkpt>
      <trkpt lat="45.13563" lon="4.26871">
        <ele>851.87</ele>
        <time>2015-09-10T12:24:36Z</time>
      </trkpt>
      <trkpt lat="45.13573" lon="4.26853">
        <ele>848.98</ele>
        <time>2015-09-10T12:24:46Z</time>
      </trkpt>
      <trkpt lat="45.13578" lon="4.2685">
        <ele>847.06</ele>
        <time>2015-09-10T12:24:50Z</time>
      </trkpt>
      <trkpt lat="45.13587" lon="4.26842">
        <ele>842.73</ele>
        <time>2015-09-10T12:24:59Z</time>
      </trkpt>
      <trkpt lat="45.13606" lon="4.2683">
        <ele>838.41</ele>
        <time>2015-09-10T12:25:14Z</time>
      </trkpt>
      <trkpt lat="45.13608" lon="4.26824">
        <ele>836.96</ele>
        <time>2015-09-10T12:25:18Z</time>
      </trkpt>
      <trkpt lat="45.13616" lon="4.26795">
        <ele>839.37</ele>
        <time>2015-09-10T12:25:34Z</time>
      </trkpt>
      <trkpt lat="45.13637" lon="4.26776">
        <ele>842.25</ele>
        <time>2015-09-10T12:25:53Z</time>
      </trkpt>
      <trkpt lat="45.13659" lon="4.26753">
        <ele>841.29</ele>
        <time>2015-09-10T12:26:12Z</time>
      </trkpt>
      <trkpt lat="45.13667" lon="4.26742">
        <ele>837.93</ele>
        <time>2015-09-10T12:26:20Z</time>
      </trkpt>
      <trkpt lat="45.13674" lon="4.2673">
        <ele>834.56</ele>
        <time>2015-09-10T12:26:29Z</time>
      </trkpt>
      <trkpt lat="45.13663" lon="4.26714">
        <ele>832.64</ele>
        <time>2015-09-10T12:26:42Z</time>
      </trkpt>
      <trkpt lat="45.13658" lon="4.26705">
        <ele>831.2</ele>
        <time>2015-09-10T12:26:48Z</time>
      </trkpt>
      <trkpt lat="45.13652" lon="4.26697">
        <ele>831.2</ele>
        <time>2015-09-10T12:26:54Z</time>
      </trkpt>
      <trkpt lat="45.13649" lon="4.26692">
        <ele>830.72</ele>
        <time>2015-09-10T12:26:57Z</time>
      </trkpt>
      <trkpt lat="45.13641" lon="4.26685">
        <ele>829.76</ele>
        <time>2015-09-10T12:27:06Z</time>
      </trkpt>
      <trkpt lat="45.13619" lon="4.26659">
        <ele>829.27</ele>
        <time>2015-09-10T12:27:24Z</time>
      </trkpt>
      <trkpt lat="45.13604" lon="4.2664">
        <ele>830.24</ele>
        <time>2015-09-10T12:27:39Z</time>
      </trkpt>
      <trkpt lat="45.13589" lon="4.26627">
        <ele>829.27</ele>
        <time>2015-09-10T12:27:58Z</time>
      </trkpt>
      <trkpt lat="45.13591" lon="4.26606">
        <ele>824.47</ele>
        <time>2015-09-10T12:28:15Z</time>
      </trkpt>
      <trkpt lat="45.13592" lon="4.26585">
        <ele>823.99</ele>
        <time>2015-09-10T12:28:27Z</time>
      </trkpt>
      <trkpt lat="45.13614" lon="4.26566">
        <ele>824.47</ele>
        <time>2015-09-10T12:28:41Z</time>
      </trkpt>
      <trkpt lat="45.13623" lon="4.26555">
        <ele>826.39</ele>
        <time>2015-09-10T12:28:50Z</time>
      </trkpt>
      <trkpt lat="45.13634" lon="4.26539">
        <ele>826.87</ele>
        <time>2015-09-10T12:28:54Z</time>
      </trkpt>
      <trkpt lat="45.13664" lon="4.26527">
        <ele>828.31</ele>
        <time>2015-09-10T12:28:57Z</time>
      </trkpt>
      <trkpt lat="45.13696" lon="4.26512">
        <ele>831.68</ele>
        <time>2015-09-10T12:29:02Z</time>
      </trkpt>
      <trkpt lat="45.13725" lon="4.26507">
        <ele>835.52</ele>
        <time>2015-09-10T12:29:07Z</time>
      </trkpt>
      <trkpt lat="45.13742" lon="4.26497">
        <ele>839.37</ele>
        <time>2015-09-10T12:29:11Z</time>
      </trkpt>
      <trkpt lat="45.13769" lon="4.26451">
        <ele>837.93</ele>
        <time>2015-09-10T12:29:21Z</time>
      </trkpt>
      <trkpt lat="45.13831" lon="4.26415">
        <ele>836.48</ele>
        <time>2015-09-10T12:29:30Z</time>
      </trkpt>
      <trkpt lat="45.13856" lon="4.26394">
        <ele>836.96</ele>
        <time>2015-09-10T12:29:34Z</time>
      </trkpt>
      <trkpt lat="45.13881" lon="4.26376">
        <ele>838.41</ele>
        <time>2015-09-10T12:29:38Z</time>
      </trkpt>
      <trkpt lat="45.13899" lon="4.26339">
        <ele>832.16</ele>
        <time>2015-09-10T12:29:45Z</time>
      </trkpt>
      <trkpt lat="45.13901" lon="4.26328">
        <ele>831.68</ele>
        <time>2015-09-10T12:29:50Z</time>
      </trkpt>
      <trkpt lat="45.1391" lon="4.26347">
        <ele>833.6</ele>
        <time>2015-09-10T12:30:00Z</time>
      </trkpt>
      <trkpt lat="45.13922" lon="4.26357">
        <ele>829.76</ele>
        <time>2015-09-10T12:30:05Z</time>
      </trkpt>
      <trkpt lat="45.13932" lon="4.26368">
        <ele>823.99</ele>
        <time>2015-09-10T12:30:09Z</time>
      </trkpt>
      <trkpt lat="45.13948" lon="4.26405">
        <ele>812.93</ele>
        <time>2015-09-10T12:30:16Z</time>
      </trkpt>
      <trkpt lat="45.13996" lon="4.26488">
        <ele>788.42</ele>
        <time>2015-09-10T12:30:30Z</time>
      </trkpt>
      <trkpt lat="45.14045" lon="4.26554">
        <ele>766.79</ele>
        <time>2015-09-10T12:30:42Z</time>
      </trkpt>
      <trkpt lat="45.14127" lon="4.26612">
        <ele>748.52</ele>
        <time>2015-09-10T12:30:56Z</time>
      </trkpt>
      <trkpt lat="45.14165" lon="4.26637">
        <ele>788.9</ele>
        <time>2015-09-10T12:31:08Z</time>
      </trkpt>
      <trkpt lat="45.14222" lon="4.26648">
        <ele>811.01</ele>
        <time>2015-09-10T12:31:23Z</time>
      </trkpt>
      <trkpt lat="45.14253" lon="4.26658">
        <ele>817.74</ele>
        <time>2015-09-10T12:31:42Z</time>
      </trkpt>
      <trkpt lat="45.14283" lon="4.2667">
        <ele>821.58</ele>
        <time>2015-09-10T12:32:00Z</time>
      </trkpt>
      <trkpt lat="45.14285" lon="4.26668">
        <ele>821.58</ele>
        <time>2015-09-10T12:32:01Z</time>
      </trkpt>
      <trkpt lat="45.14287" lon="4.26645">
        <ele>821.1</ele>
        <time>2015-09-10T12:32:06Z</time>
      </trkpt>
      <trkpt lat="45.14277" lon="4.26595">
        <ele>820.14</ele>
        <time>2015-09-10T12:32:13Z</time>
      </trkpt>
      <trkpt lat="45.14275" lon="4.26495">
        <ele>818.22</ele>
        <time>2015-09-10T12:32:29Z</time>
      </trkpt>
      <trkpt lat="45.14262" lon="4.26395">
        <ele>818.22</ele>
        <time>2015-09-10T12:32:44Z</time>
      </trkpt>
      <trkpt lat="45.14248" lon="4.2635">
        <ele>820.14</ele>
        <time>2015-09-10T12:33:02Z</time>
      </trkpt>
      <trkpt lat="45.14247" lon="4.26343">
        <ele>820.62</ele>
        <time>2015-09-10T12:33:05Z</time>
      </trkpt>
      <trkpt lat="45.14254" lon="4.26283">
        <ele>818.22</ele>
        <time>2015-09-10T12:33:18Z</time>
      </trkpt>
      <trkpt lat="45.14248" lon="4.26217">
        <ele>823.99</ele>
        <time>2015-09-10T12:33:36Z</time>
      </trkpt>
      <trkpt lat="45.14264" lon="4.26177">
        <ele>823.51</ele>
        <time>2015-09-10T12:33:50Z</time>
      </trkpt>
      <trkpt lat="45.14252" lon="4.26128">
        <ele>825.91</ele>
        <time>2015-09-10T12:34:08Z</time>
      </trkpt>
      <trkpt lat="45.14251" lon="4.26125">
        <ele>825.91</ele>
        <time>2015-09-10T12:34:09Z</time>
      </trkpt>
      <trkpt lat="45.14248" lon="4.26086">
        <ele>824.47</ele>
        <time>2015-09-10T12:34:26Z</time>
      </trkpt>
      <trkpt lat="45.14218" lon="4.26029">
        <ele>822.06</ele>
        <time>2015-09-10T12:34:47Z</time>
      </trkpt>
      <trkpt lat="45.14211" lon="4.2602">
        <ele>823.03</ele>
        <time>2015-09-10T12:34:51Z</time>
      </trkpt>
      <trkpt lat="45.14176" lon="4.25987">
        <ele>826.39</ele>
        <time>2015-09-10T12:35:10Z</time>
      </trkpt>
      <trkpt lat="45.14141" lon="4.25949">
        <ele>830.24</ele>
        <time>2015-09-10T12:35:36Z</time>
      </trkpt>
      <trkpt lat="45.14101" lon="4.25919">
        <ele>829.76</ele>
        <time>2015-09-10T12:35:56Z</time>
      </trkpt>
      <trkpt lat="45.14075" lon="4.25914">
        <ele>826.39</ele>
        <time>2015-09-10T12:36:09Z</time>
      </trkpt>
      <trkpt lat="45.14059" lon="4.25902">
        <ele>824.47</ele>
        <time>2015-09-10T12:36:21Z</time>
      </trkpt>
      <trkpt lat="45.14047" lon="4.25872">
        <ele>821.58</ele>
        <time>2015-09-10T12:36:39Z</time>
      </trkpt>
      <trkpt lat="45.14047" lon="4.25864">
        <ele>820.62</ele>
        <time>2015-09-10T12:37:01Z</time>
      </trkpt>
      <trkpt lat="45.14047" lon="4.25845">
        <ele>820.62</ele>
        <time>2015-09-10T12:37:26Z</time>
      </trkpt>
      <trkpt lat="45.14049" lon="4.25834">
        <ele>820.62</ele>
        <time>2015-09-10T12:37:31Z</time>
      </trkpt>
      <trkpt lat="45.14057" lon="4.25818">
        <ele>819.18</ele>
        <time>2015-09-10T12:37:41Z</time>
      </trkpt>
      <trkpt lat="45.14064" lon="4.2581">
        <ele>819.18</ele>
        <time>2015-09-10T12:37:46Z</time>
      </trkpt>
      <trkpt lat="45.14081" lon="4.25796">
        <ele>818.22</ele>
        <time>2015-09-10T12:37:52Z</time>
      </trkpt>
      <trkpt lat="45.14099" lon="4.2578">
        <ele>818.22</ele>
        <time>2015-09-10T12:37:58Z</time>
      </trkpt>
      <trkpt lat="45.14099" lon="4.25774">
        <ele>817.26</ele>
        <time>2015-09-10T12:38:01Z</time>
      </trkpt>
      <trkpt lat="45.14105" lon="4.25765">
        <ele>816.78</ele>
        <time>2015-09-10T12:38:06Z</time>
      </trkpt>
      <trkpt lat="45.14127" lon="4.25747">
        <ele>818.7</ele>
        <time>2015-09-10T12:38:19Z</time>
      </trkpt>
      <trkpt lat="45.14139" lon="4.2572">
        <ele>820.14</ele>
        <time>2015-09-10T12:38:36Z</time>
      </trkpt>
      <trkpt lat="45.14176" lon="4.25699">
        <ele>823.51</ele>
        <time>2015-09-10T12:38:46Z</time>
      </trkpt>
      <trkpt lat="45.14193" lon="4.25671">
        <ele>831.2</ele>
        <time>2015-09-10T12:38:56Z</time>
      </trkpt>
      <trkpt lat="45.14204" lon="4.25644">
        <ele>833.6</ele>
        <time>2015-09-10T12:39:12Z</time>
      </trkpt>
      <trkpt lat="45.14207" lon="4.25633">
        <ele>834.56</ele>
        <time>2015-09-10T12:39:18Z</time>
      </trkpt>
      <trkpt lat="45.14205" lon="4.25583">
        <ele>842.25</ele>
        <time>2015-09-10T12:39:43Z</time>
      </trkpt>
      <trkpt lat="45.14199" lon="4.25546">
        <ele>848.5</ele>
        <time>2015-09-10T12:40:02Z</time>
      </trkpt>
      <trkpt lat="45.1423" lon="4.25523">
        <ele>851.87</ele>
        <time>2015-09-10T12:40:21Z</time>
      </trkpt>
      <trkpt lat="45.14249" lon="4.25529">
        <ele>852.35</ele>
        <time>2015-09-10T12:40:26Z</time>
      </trkpt>
      <trkpt lat="45.14346" lon="4.2552">
        <ele>852.35</ele>
        <time>2015-09-10T12:40:39Z</time>
      </trkpt>
      <trkpt lat="45.1448" lon="4.25487">
        <ele>848.5</ele>
        <time>2015-09-10T12:40:59Z</time>
      </trkpt>
      <trkpt lat="45.14498" lon="4.25484">
        <ele>847.54</ele>
        <time>2015-09-10T12:41:02Z</time>
      </trkpt>
      <trkpt lat="45.14518" lon="4.25493">
        <ele>847.06</ele>
        <time>2015-09-10T12:41:06Z</time>
      </trkpt>
      <trkpt lat="45.14558" lon="4.2552">
        <ele>845.62</ele>
        <time>2015-09-10T12:41:15Z</time>
      </trkpt>
      <trkpt lat="45.14599" lon="4.25512">
        <ele>844.18</ele>
        <time>2015-09-10T12:41:22Z</time>
      </trkpt>
      <trkpt lat="45.14615" lon="4.25499">
        <ele>844.18</ele>
        <time>2015-09-10T12:41:26Z</time>
      </trkpt>
      <trkpt lat="45.14629" lon="4.2545">
        <ele>849.46</ele>
        <time>2015-09-10T12:41:39Z</time>
      </trkpt>
      <trkpt lat="45.14631" lon="4.25428">
        <ele>849.46</ele>
        <time>2015-09-10T12:41:49Z</time>
      </trkpt>
      <trkpt lat="45.14639" lon="4.25412">
        <ele>847.06</ele>
        <time>2015-09-10T12:41:59Z</time>
      </trkpt>
      <trkpt lat="45.14651" lon="4.25393">
        <ele>844.18</ele>
        <time>2015-09-10T12:42:15Z</time>
      </trkpt>
      <trkpt lat="45.14668" lon="4.25381">
        <ele>840.33</ele>
        <time>2015-09-10T12:42:34Z</time>
      </trkpt>
      <trkpt lat="45.14708" lon="4.25365">
        <ele>835.04</ele>
        <time>2015-09-10T12:42:59Z</time>
      </trkpt>
      <trkpt lat="45.14738" lon="4.25373">
        <ele>830.24</ele>
        <time>2015-09-10T12:43:21Z</time>
      </trkpt>
      <trkpt lat="45.14762" lon="4.25375">
        <ele>825.91</ele>
        <time>2015-09-10T12:43:36Z</time>
      </trkpt>
      <trkpt lat="45.14791" lon="4.25381">
        <ele>830.24</ele>
        <time>2015-09-10T12:43:53Z</time>
      </trkpt>
      <trkpt lat="45.14797" lon="4.25373">
        <ele>830.24</ele>
        <time>2015-09-10T12:44:00Z</time>
      </trkpt>
      <trkpt lat="45.14799" lon="4.25362">
        <ele>829.27</ele>
        <time>2015-09-10T12:44:06Z</time>
      </trkpt>
      <trkpt lat="45.14807" lon="4.25335">
        <ele>825.91</ele>
        <time>2015-09-10T12:44:21Z</time>
      </trkpt>
      <trkpt lat="45.14809" lon="4.25334">
        <ele>825.91</ele>
        <time>2015-09-10T12:44:23Z</time>
      </trkpt>
      <trkpt lat="45.14816" lon="4.25336">
        <ele>824.47</ele>
        <time>2015-09-10T12:44:30Z</time>
      </trkpt>
      <trkpt lat="45.14838" lon="4.25341">
        <ele>818.7</ele>
        <time>2015-09-10T12:44:46Z</time>
      </trkpt>
      <trkpt lat="45.14863" lon="4.25347">
        <ele>817.74</ele>
        <time>2015-09-10T12:45:02Z</time>
      </trkpt>
      <trkpt lat="45.14898" lon="4.25324">
        <ele>817.74</ele>
        <time>2015-09-10T12:45:11Z</time>
      </trkpt>
      <trkpt lat="45.14919" lon="4.25274">
        <ele>814.85</ele>
        <time>2015-09-10T12:45:20Z</time>
      </trkpt>
      <trkpt lat="45.14927" lon="4.25235">
        <ele>813.41</ele>
        <time>2015-09-10T12:45:24Z</time>
      </trkpt>
      <trkpt lat="45.14939" lon="4.25172">
        <ele>813.41</ele>
        <time>2015-09-10T12:45:34Z</time>
      </trkpt>
      <trkpt lat="45.14945" lon="4.25149">
        <ele>813.41</ele>
        <time>2015-09-10T12:45:39Z</time>
      </trkpt>
      <trkpt lat="45.1496" lon="4.25045">
        <ele>811.97</ele>
        <time>2015-09-10T12:45:51Z</time>
      </trkpt>
      <trkpt lat="45.14973" lon="4.24985">
        <ele>811.97</ele>
        <time>2015-09-10T12:46:01Z</time>
      </trkpt>
      <trkpt lat="45.1498" lon="4.24955">
        <ele>816.3</ele>
        <time>2015-09-10T12:46:08Z</time>
      </trkpt>
      <trkpt lat="45.1498" lon="4.24942">
        <ele>817.26</ele>
        <time>2015-09-10T12:46:14Z</time>
      </trkpt>
      <trkpt lat="45.14981" lon="4.2493">
        <ele>817.74</ele>
        <time>2015-09-10T12:46:18Z</time>
      </trkpt>
      <trkpt lat="45.14987" lon="4.24906">
        <ele>815.34</ele>
        <time>2015-09-10T12:46:24Z</time>
      </trkpt>
      <trkpt lat="45.15006" lon="4.24876">
        <ele>811.01</ele>
        <time>2015-09-10T12:46:36Z</time>
      </trkpt>
      <trkpt lat="45.15021" lon="4.24866">
        <ele>807.16</ele>
        <time>2015-09-10T12:46:45Z</time>
      </trkpt>
      <trkpt lat="45.15049" lon="4.24833">
        <ele>801.88</ele>
        <time>2015-09-10T12:46:57Z</time>
      </trkpt>
      <trkpt lat="45.15053" lon="4.24792">
        <ele>800.44</ele>
        <time>2015-09-10T12:47:16Z</time>
      </trkpt>
      <trkpt lat="45.15055" lon="4.24779">
        <ele>801.4</ele>
        <time>2015-09-10T12:47:37Z</time>
      </trkpt>
      <trkpt lat="45.15056" lon="4.24773">
        <ele>805.72</ele>
        <time>2015-09-10T12:47:40Z</time>
      </trkpt>
      <trkpt lat="45.15059" lon="4.2476">
        <ele>811.01</ele>
        <time>2015-09-10T12:47:45Z</time>
      </trkpt>
      <trkpt lat="45.15082" lon="4.24748">
        <ele>816.78</ele>
        <time>2015-09-10T12:48:03Z</time>
      </trkpt>
      <trkpt lat="45.15109" lon="4.24751">
        <ele>817.26</ele>
        <time>2015-09-10T12:48:21Z</time>
      </trkpt>
      <trkpt lat="45.15135" lon="4.24744">
        <ele>820.14</ele>
        <time>2015-09-10T12:48:40Z</time>
      </trkpt>
      <trkpt lat="45.15162" lon="4.24736">
        <ele>821.58</ele>
        <time>2015-09-10T12:48:47Z</time>
      </trkpt>
      <trkpt lat="45.15186" lon="4.24729">
        <ele>821.1</ele>
        <time>2015-09-10T12:48:57Z</time>
      </trkpt>
      <trkpt lat="45.15208" lon="4.24711">
        <ele>817.74</ele>
        <time>2015-09-10T12:49:15Z</time>
      </trkpt>
      <trkpt lat="45.15206" lon="4.24692">
        <ele>815.34</ele>
        <time>2015-09-10T12:49:25Z</time>
      </trkpt>
      <trkpt lat="45.15206" lon="4.24649">
        <ele>815.82</ele>
        <time>2015-09-10T12:49:46Z</time>
      </trkpt>
      <trkpt lat="45.15205" lon="4.24645">
        <ele>815.82</ele>
        <time>2015-09-10T12:49:49Z</time>
      </trkpt>
      <trkpt lat="45.15184" lon="4.24631">
        <ele>818.7</ele>
        <time>2015-09-10T12:49:55Z</time>
      </trkpt>
      <trkpt lat="45.15129" lon="4.24554">
        <ele>822.55</ele>
        <time>2015-09-10T12:50:09Z</time>
      </trkpt>
      <trkpt lat="45.15128" lon="4.24551">
        <ele>822.55</ele>
        <time>2015-09-10T12:50:10Z</time>
      </trkpt>
      <trkpt lat="45.1514" lon="4.2453">
        <ele>823.99</ele>
        <time>2015-09-10T12:50:18Z</time>
      </trkpt>
      <trkpt lat="45.15191" lon="4.24485">
        <ele>830.24</ele>
        <time>2015-09-10T12:50:30Z</time>
      </trkpt>
      <trkpt lat="45.15211" lon="4.24457">
        <ele>834.56</ele>
        <time>2015-09-10T12:50:39Z</time>
      </trkpt>
      <trkpt lat="45.15228" lon="4.24441">
        <ele>837.93</ele>
        <time>2015-09-10T12:50:55Z</time>
      </trkpt>
      <trkpt lat="45.15223" lon="4.24432">
        <ele>839.85</ele>
        <time>2015-09-10T12:51:09Z</time>
      </trkpt>
      <trkpt lat="45.15225" lon="4.24452">
        <ele>841.29</ele>
        <time>2015-09-10T12:51:24Z</time>
      </trkpt>
      <trkpt lat="45.15226" lon="4.24452">
        <ele>841.29</ele>
        <time>2015-09-10T12:51:25Z</time>
      </trkpt>
      <trkpt lat="45.15249" lon="4.24453">
        <ele>842.73</ele>
        <time>2015-09-10T12:51:40Z</time>
      </trkpt>
      <trkpt lat="45.15266" lon="4.24446">
        <ele>848.02</ele>
        <time>2015-09-10T12:51:53Z</time>
      </trkpt>
      <trkpt lat="45.1528" lon="4.24443">
        <ele>852.35</ele>
        <time>2015-09-10T12:52:05Z</time>
      </trkpt>
      <trkpt lat="45.15306" lon="4.24442">
        <ele>858.59</ele>
        <time>2015-09-10T12:52:22Z</time>
      </trkpt>
      <trkpt lat="45.15325" lon="4.24436">
        <ele>858.59</ele>
        <time>2015-09-10T12:52:36Z</time>
      </trkpt>
      <trkpt lat="45.15336" lon="4.24433">
        <ele>857.63</ele>
        <time>2015-09-10T12:52:44Z</time>
      </trkpt>
      <trkpt lat="45.15358" lon="4.24421">
        <ele>856.19</ele>
        <time>2015-09-10T12:52:59Z</time>
      </trkpt>
      <trkpt lat="45.15388" lon="4.24394">
        <ele>850.42</ele>
        <time>2015-09-10T12:53:19Z</time>
      </trkpt>
      <trkpt lat="45.15415" lon="4.24376">
        <ele>844.66</ele>
        <time>2015-09-10T12:53:40Z</time>
      </trkpt>
      <trkpt lat="45.15426" lon="4.24367">
        <ele>839.37</ele>
        <time>2015-09-10T12:53:52Z</time>
      </trkpt>
      <trkpt lat="45.15433" lon="4.24349">
        <ele>835.04</ele>
        <time>2015-09-10T12:54:07Z</time>
      </trkpt>
      <trkpt lat="45.1544" lon="4.24325">
        <ele>829.76</ele>
        <time>2015-09-10T12:54:23Z</time>
      </trkpt>
      <trkpt lat="45.15456" lon="4.24301">
        <ele>825.43</ele>
        <time>2015-09-10T12:54:41Z</time>
      </trkpt>
      <trkpt lat="45.15477" lon="4.24274">
        <ele>827.83</ele>
        <time>2015-09-10T12:54:56Z</time>
      </trkpt>
      <trkpt lat="45.15492" lon="4.24242">
        <ele>830.72</ele>
        <time>2015-09-10T12:55:15Z</time>
      </trkpt>
      <trkpt lat="45.15497" lon="4.24234">
        <ele>830.24</ele>
        <time>2015-09-10T12:55:20Z</time>
      </trkpt>
      <trkpt lat="45.15505" lon="4.2422">
        <ele>824.47</ele>
        <time>2015-09-10T12:55:34Z</time>
      </trkpt>
      <trkpt lat="45.15514" lon="4.24192">
        <ele>819.66</ele>
        <time>2015-09-10T12:55:49Z</time>
      </trkpt>
      <trkpt lat="45.15531" lon="4.24186">
        <ele>824.47</ele>
        <time>2015-09-10T12:56:01Z</time>
      </trkpt>
      <trkpt lat="45.1554" lon="4.24187">
        <ele>824.95</ele>
        <time>2015-09-10T12:56:14Z</time>
      </trkpt>
      <trkpt lat="45.15552" lon="4.24178">
        <ele>825.43</ele>
        <time>2015-09-10T12:56:27Z</time>
      </trkpt>
      <trkpt lat="45.15549" lon="4.24165">
        <ele>825.43</ele>
        <time>2015-09-10T12:56:41Z</time>
      </trkpt>
      <trkpt lat="45.15561" lon="4.24155">
        <ele>826.87</ele>
        <time>2015-09-10T12:56:54Z</time>
      </trkpt>
      <trkpt lat="45.15566" lon="4.24152">
        <ele>827.83</ele>
        <time>2015-09-10T12:56:58Z</time>
      </trkpt>
      <trkpt lat="45.15585" lon="4.2413">
        <ele>829.27</ele>
        <time>2015-09-10T12:57:13Z</time>
      </trkpt>
      <trkpt lat="45.15592" lon="4.24119">
        <ele>831.2</ele>
        <time>2015-09-10T12:57:21Z</time>
      </trkpt>
      <trkpt lat="45.15593" lon="4.24102">
        <ele>834.56</ele>
        <time>2015-09-10T12:57:31Z</time>
      </trkpt>
      <trkpt lat="45.15587" lon="4.24089">
        <ele>837.93</ele>
        <time>2015-09-10T12:57:38Z</time>
      </trkpt>
      <trkpt lat="45.15573" lon="4.24069">
        <ele>841.29</ele>
        <time>2015-09-10T12:57:51Z</time>
      </trkpt>
      <trkpt lat="45.15569" lon="4.24061">
        <ele>841.77</ele>
        <time>2015-09-10T12:57:58Z</time>
      </trkpt>
      <trkpt lat="45.15562" lon="4.24058">
        <ele>841.77</ele>
        <time>2015-09-10T12:58:04Z</time>
      </trkpt>
      <trkpt lat="45.15541" lon="4.24051">
        <ele>842.73</ele>
        <time>2015-09-10T12:58:22Z</time>
      </trkpt>
      <trkpt lat="45.15538" lon="4.24048">
        <ele>842.25</ele>
        <time>2015-09-10T12:58:25Z</time>
      </trkpt>
      <trkpt lat="45.15532" lon="4.24045">
        <ele>841.77</ele>
        <time>2015-09-10T12:58:30Z</time>
      </trkpt>
      <trkpt lat="45.15518" lon="4.24046">
        <ele>841.77</ele>
        <time>2015-09-10T12:58:40Z</time>
      </trkpt>
      <trkpt lat="45.15513" lon="4.24048">
        <ele>841.77</ele>
        <time>2015-09-10T12:58:44Z</time>
      </trkpt>
      <trkpt lat="45.15482" lon="4.24054">
        <ele>840.81</ele>
        <time>2015-09-10T12:58:54Z</time>
      </trkpt>
      <trkpt lat="45.1547" lon="4.24064">
        <ele>840.81</ele>
        <time>2015-09-10T12:58:57Z</time>
      </trkpt>
      <trkpt lat="45.1544" lon="4.2408">
        <ele>845.62</ele>
        <time>2015-09-10T12:59:07Z</time>
      </trkpt>
      <trkpt lat="45.1543" lon="4.24082">
        <ele>847.54</ele>
        <time>2015-09-10T12:59:13Z</time>
      </trkpt>
      <trkpt lat="45.15416" lon="4.24081">
        <ele>851.38</ele>
        <time>2015-09-10T12:59:27Z</time>
      </trkpt>
      <trkpt lat="45.15419" lon="4.24071">
        <ele>852.35</ele>
        <time>2015-09-10T12:59:35Z</time>
      </trkpt>
      <trkpt lat="45.15421" lon="4.24065">
        <ele>852.83</ele>
        <time>2015-09-10T12:59:38Z</time>
      </trkpt>
      <trkpt lat="45.15427" lon="4.24022">
        <ele>851.87</ele>
        <time>2015-09-10T12:59:48Z</time>
      </trkpt>
      <trkpt lat="45.15413" lon="4.23994">
        <ele>852.35</ele>
        <time>2015-09-10T12:59:53Z</time>
      </trkpt>
      <trkpt lat="45.15397" lon="4.23975">
        <ele>854.75</ele>
        <time>2015-09-10T12:59:57Z</time>
      </trkpt>
      <trkpt lat="45.15372" lon="4.23959">
        <ele>855.23</ele>
        <time>2015-09-10T13:00:01Z</time>
      </trkpt>
      <trkpt lat="45.1534" lon="4.23939">
        <ele>855.71</ele>
        <time>2015-09-10T13:00:06Z</time>
      </trkpt>
      <trkpt lat="45.15316" lon="4.23926">
        <ele>856.19</ele>
        <time>2015-09-10T13:00:10Z</time>
      </trkpt>
      <trkpt lat="45.15274" lon="4.23894">
        <ele>855.71</ele>
        <time>2015-09-10T13:00:17Z</time>
      </trkpt>
      <trkpt lat="45.15226" lon="4.23877">
        <ele>857.15</ele>
        <time>2015-09-10T13:00:29Z</time>
      </trkpt>
      <trkpt lat="45.15207" lon="4.23888">
        <ele>862.44</ele>
        <time>2015-09-10T13:00:42Z</time>
      </trkpt>
      <trkpt lat="45.15195" lon="4.23898">
        <ele>864.36</ele>
        <time>2015-09-10T13:00:52Z</time>
      </trkpt>
      <trkpt lat="45.15185" lon="4.23903">
        <ele>863.4</ele>
        <time>2015-09-10T13:00:59Z</time>
      </trkpt>
      <trkpt lat="45.15166" lon="4.2392">
        <ele>862.44</ele>
        <time>2015-09-10T13:01:14Z</time>
      </trkpt>
      <trkpt lat="45.15138" lon="4.2394">
        <ele>859.56</ele>
        <time>2015-09-10T13:01:22Z</time>
      </trkpt>
      <trkpt lat="45.15128" lon="4.23947">
        <ele>859.08</ele>
        <time>2015-09-10T13:01:24Z</time>
      </trkpt>
      <trkpt lat="45.15055" lon="4.23998">
        <ele>854.27</ele>
        <time>2015-09-10T13:01:37Z</time>
      </trkpt>
      <trkpt lat="45.14966" lon="4.24041">
        <ele>856.67</ele>
        <time>2015-09-10T13:01:50Z</time>
      </trkpt>
      <trkpt lat="45.1488" lon="4.24074">
        <ele>861.48</ele>
        <time>2015-09-10T13:02:02Z</time>
      </trkpt>
      <trkpt lat="45.14808" lon="4.24107">
        <ele>869.17</ele>
        <time>2015-09-10T13:02:14Z</time>
      </trkpt>
      <trkpt lat="45.14789" lon="4.24149">
        <ele>873.5</ele>
        <time>2015-09-10T13:02:20Z</time>
      </trkpt>
      <trkpt lat="45.14788" lon="4.24183">
        <ele>877.34</ele>
        <time>2015-09-10T13:02:28Z</time>
      </trkpt>
      <trkpt lat="45.14773" lon="4.24203">
        <ele>876.38</ele>
        <time>2015-09-10T13:02:43Z</time>
      </trkpt>
      <trkpt lat="45.14764" lon="4.24208">
        <ele>875.9</ele>
        <time>2015-09-10T13:02:49Z</time>
      </trkpt>
      <trkpt lat="45.14759" lon="4.24215">
        <ele>875.42</ele>
        <time>2015-09-10T13:02:54Z</time>
      </trkpt>
      <trkpt lat="45.14743" lon="4.24244">
        <ele>874.46</ele>
        <time>2015-09-10T13:03:13Z</time>
      </trkpt>
      <trkpt lat="45.14731" lon="4.24273">
        <ele>876.86</ele>
        <time>2015-09-10T13:03:30Z</time>
      </trkpt>
      <trkpt lat="45.14712" lon="4.24287">
        <ele>877.82</ele>
        <time>2015-09-10T13:03:45Z</time>
      </trkpt>
      <trkpt lat="45.14687" lon="4.24302">
        <ele>876.86</ele>
        <time>2015-09-10T13:04:06Z</time>
      </trkpt>
      <trkpt lat="45.1467" lon="4.24304">
        <ele>879.26</ele>
        <time>2015-09-10T13:04:20Z</time>
      </trkpt>
      <trkpt lat="45.1466" lon="4.24294">
        <ele>879.74</ele>
        <time>2015-09-10T13:04:35Z</time>
      </trkpt>
      <trkpt lat="45.14659" lon="4.24295">
        <ele>879.26</ele>
        <time>2015-09-10T13:05:00Z</time>
      </trkpt>
      <trkpt lat="45.14657" lon="4.24297">
        <ele>879.74</ele>
        <time>2015-09-10T13:05:07Z</time>
      </trkpt>
      <trkpt lat="45.1463" lon="4.24307">
        <ele>879.74</ele>
        <time>2015-09-10T13:05:25Z</time>
      </trkpt>
      <trkpt lat="45.14608" lon="4.24306">
        <ele>880.22</ele>
        <time>2015-09-10T13:05:42Z</time>
      </trkpt>
      <trkpt lat="45.14584" lon="4.24309">
        <ele>879.26</ele>
        <time>2015-09-10T13:06:00Z</time>
      </trkpt>
      <trkpt lat="45.14577" lon="4.24306">
        <ele>879.26</ele>
        <time>2015-09-10T13:06:08Z</time>
      </trkpt>
      <trkpt lat="45.1456" lon="4.24282">
        <ele>878.3</ele>
        <time>2015-09-10T13:06:24Z</time>
      </trkpt>
      <trkpt lat="45.1455" lon="4.24259">
        <ele>875.9</ele>
        <time>2015-09-10T13:06:40Z</time>
      </trkpt>
      <trkpt lat="45.14539" lon="4.24229">
        <ele>874.94</ele>
        <time>2015-09-10T13:06:57Z</time>
      </trkpt>
      <trkpt lat="45.14531" lon="4.24216">
        <ele>874.94</ele>
        <time>2015-09-10T13:07:00Z</time>
      </trkpt>
      <trkpt lat="45.14468" lon="4.24166">
        <ele>884.07</ele>
        <time>2015-09-10T13:07:11Z</time>
      </trkpt>
      <trkpt lat="45.14419" lon="4.2405">
        <ele>894.16</ele>
        <time>2015-09-10T13:07:25Z</time>
      </trkpt>
      <trkpt lat="45.14389" lon="4.23947">
        <ele>898.97</ele>
        <time>2015-09-10T13:07:37Z</time>
      </trkpt>
      <trkpt lat="45.14384" lon="4.23928">
        <ele>902.33</ele>
        <time>2015-09-10T13:07:47Z</time>
      </trkpt>
      <trkpt lat="45.14385" lon="4.23899">
        <ele>900.89</ele>
        <time>2015-09-10T13:08:02Z</time>
      </trkpt>
      <trkpt lat="45.14391" lon="4.23876">
        <ele>900.41</ele>
        <time>2015-09-10T13:08:15Z</time>
      </trkpt>
      <trkpt lat="45.14397" lon="4.23839">
        <ele>898.97</ele>
        <time>2015-09-10T13:08:32Z</time>
      </trkpt>
      <trkpt lat="45.14396" lon="4.23833">
        <ele>898.97</ele>
        <time>2015-09-10T13:08:36Z</time>
      </trkpt>
      <trkpt lat="45.14394" lon="4.23825">
        <ele>899.45</ele>
        <time>2015-09-10T13:08:40Z</time>
      </trkpt>
      <trkpt lat="45.14386" lon="4.23792">
        <ele>899.93</ele>
        <time>2015-09-10T13:08:55Z</time>
      </trkpt>
      <trkpt lat="45.1438" lon="4.23769">
        <ele>898.49</ele>
        <time>2015-09-10T13:09:07Z</time>
      </trkpt>
      <trkpt lat="45.14364" lon="4.23757">
        <ele>894.16</ele>
        <time>2015-09-10T13:09:21Z</time>
      </trkpt>
      <trkpt lat="45.14349" lon="4.23768">
        <ele>890.32</ele>
        <time>2015-09-10T13:09:34Z</time>
      </trkpt>
      <trkpt lat="45.14334" lon="4.23792">
        <ele>886.95</ele>
        <time>2015-09-10T13:09:52Z</time>
      </trkpt>
      <trkpt lat="45.14326" lon="4.23808">
        <ele>885.51</ele>
        <time>2015-09-10T13:10:03Z</time>
      </trkpt>
      <trkpt lat="45.1432" lon="4.23808">
        <ele>883.59</ele>
        <time>2015-09-10T13:10:07Z</time>
      </trkpt>
      <trkpt lat="45.14307" lon="4.23794">
        <ele>880.71</ele>
        <time>2015-09-10T13:10:18Z</time>
      </trkpt>
      <trkpt lat="45.14302" lon="4.23791">
        <ele>879.74</ele>
        <time>2015-09-10T13:10:22Z</time>
      </trkpt>
      <trkpt lat="45.14279" lon="4.23762">
        <ele>873.98</ele>
        <time>2015-09-10T13:10:42Z</time>
      </trkpt>
      <trkpt lat="45.14261" lon="4.23743">
        <ele>871.09</ele>
        <time>2015-09-10T13:10:57Z</time>
      </trkpt>
      <trkpt lat="45.14243" lon="4.2372">
        <ele>868.69</ele>
        <time>2015-09-10T13:11:13Z</time>
      </trkpt>
      <trkpt lat="45.1423" lon="4.23684">
        <ele>867.25</ele>
        <time>2015-09-10T13:11:32Z</time>
      </trkpt>
      <trkpt lat="45.14217" lon="4.23649">
        <ele>871.09</ele>
        <time>2015-09-10T13:11:50Z</time>
      </trkpt>
      <trkpt lat="45.14232" lon="4.2363">
        <ele>871.09</ele>
        <time>2015-09-10T13:12:04Z</time>
      </trkpt>
      <trkpt lat="45.14256" lon="4.2361">
        <ele>869.65</ele>
        <time>2015-09-10T13:12:24Z</time>
      </trkpt>
      <trkpt lat="45.14271" lon="4.23595">
        <ele>867.25</ele>
        <time>2015-09-10T13:12:38Z</time>
      </trkpt>
      <trkpt lat="45.1429" lon="4.23578">
        <ele>864.36</ele>
        <time>2015-09-10T13:12:52Z</time>
      </trkpt>
      <trkpt lat="45.14318" lon="4.23552">
        <ele>864.36</ele>
        <time>2015-09-10T13:13:03Z</time>
      </trkpt>
      <trkpt lat="45.14389" lon="4.23479">
        <ele>865.32</ele>
        <time>2015-09-10T13:13:16Z</time>
      </trkpt>
      <trkpt lat="45.14399" lon="4.23467">
        <ele>865.8</ele>
        <time>2015-09-10T13:13:18Z</time>
      </trkpt>
      <trkpt lat="45.14449" lon="4.23429">
        <ele>866.77</ele>
        <time>2015-09-10T13:13:29Z</time>
      </trkpt>
      <trkpt lat="45.1447" lon="4.23406">
        <ele>863.4</ele>
        <time>2015-09-10T13:13:45Z</time>
      </trkpt>
      <trkpt lat="45.14489" lon="4.23389">
        <ele>858.59</ele>
        <time>2015-09-10T13:14:01Z</time>
      </trkpt>
      <trkpt lat="45.14511" lon="4.23366">
        <ele>857.63</ele>
        <time>2015-09-10T13:14:18Z</time>
      </trkpt>
      <trkpt lat="45.14531" lon="4.23343">
        <ele>857.63</ele>
        <time>2015-09-10T13:14:34Z</time>
      </trkpt>
      <trkpt lat="45.14551" lon="4.23322">
        <ele>857.63</ele>
        <time>2015-09-10T13:14:51Z</time>
      </trkpt>
      <trkpt lat="45.1457" lon="4.233">
        <ele>855.71</ele>
        <time>2015-09-10T13:15:08Z</time>
      </trkpt>
      <trkpt lat="45.14587" lon="4.23279">
        <ele>853.79</ele>
        <time>2015-09-10T13:15:24Z</time>
      </trkpt>
      <trkpt lat="45.14602" lon="4.23256">
        <ele>852.83</ele>
        <time>2015-09-10T13:15:39Z</time>
      </trkpt>
      <trkpt lat="45.14611" lon="4.23223">
        <ele>852.35</ele>
        <time>2015-09-10T13:15:56Z</time>
      </trkpt>
      <trkpt lat="45.14598" lon="4.2319">
        <ele>852.35</ele>
        <time>2015-09-10T13:16:15Z</time>
      </trkpt>
      <trkpt lat="45.14589" lon="4.23161">
        <ele>850.9</ele>
        <time>2015-09-10T13:16:32Z</time>
      </trkpt>
      <trkpt lat="45.14588" lon="4.23136">
        <ele>850.42</ele>
        <time>2015-09-10T13:16:46Z</time>
      </trkpt>
      <trkpt lat="45.14596" lon="4.23109">
        <ele>850.9</ele>
        <time>2015-09-10T13:17:02Z</time>
      </trkpt>
      <trkpt lat="45.146" lon="4.23103">
        <ele>850.9</ele>
        <time>2015-09-10T13:17:07Z</time>
      </trkpt>
      <trkpt lat="45.14617" lon="4.23067">
        <ele>851.38</ele>
        <time>2015-09-10T13:17:19Z</time>
      </trkpt>
      <trkpt lat="45.14622" lon="4.23055">
        <ele>850.9</ele>
        <time>2015-09-10T13:17:21Z</time>
      </trkpt>
      <trkpt lat="45.14628" lon="4.22986">
        <ele>846.58</ele>
        <time>2015-09-10T13:17:31Z</time>
      </trkpt>
      <trkpt lat="45.14632" lon="4.22953">
        <ele>845.62</ele>
        <time>2015-09-10T13:17:43Z</time>
      </trkpt>
      <trkpt lat="45.14633" lon="4.22945">
        <ele>844.66</ele>
        <time>2015-09-10T13:17:46Z</time>
      </trkpt>
      <trkpt lat="45.14633" lon="4.22932">
        <ele>842.25</ele>
        <time>2015-09-10T13:17:53Z</time>
      </trkpt>
      <trkpt lat="45.14622" lon="4.22911">
        <ele>839.85</ele>
        <time>2015-09-10T13:18:07Z</time>
      </trkpt>
      <trkpt lat="45.14617" lon="4.22906">
        <ele>838.41</ele>
        <time>2015-09-10T13:18:11Z</time>
      </trkpt>
      <trkpt lat="45.14582" lon="4.22877">
        <ele>833.6</ele>
        <time>2015-09-10T13:18:19Z</time>
      </trkpt>
      <trkpt lat="45.14532" lon="4.22868">
        <ele>826.87</ele>
        <time>2015-09-10T13:18:30Z</time>
      </trkpt>
      <trkpt lat="45.14524" lon="4.22867">
        <ele>824.47</ele>
        <time>2015-09-10T13:18:35Z</time>
      </trkpt>
      <trkpt lat="45.14506" lon="4.22868">
        <ele>822.06</ele>
        <time>2015-09-10T13:18:39Z</time>
      </trkpt>
      <trkpt lat="45.14478" lon="4.22854">
        <ele>819.66</ele>
        <time>2015-09-10T13:18:44Z</time>
      </trkpt>
      <trkpt lat="45.14452" lon="4.22844">
        <ele>817.74</ele>
        <time>2015-09-10T13:18:48Z</time>
      </trkpt>
      <trkpt lat="45.14441" lon="4.2284">
        <ele>816.78</ele>
        <time>2015-09-10T13:18:50Z</time>
      </trkpt>
      <trkpt lat="45.14407" lon="4.2284">
        <ele>813.41</ele>
        <time>2015-09-10T13:18:56Z</time>
      </trkpt>
      <trkpt lat="45.14369" lon="4.22837">
        <ele>812.93</ele>
        <time>2015-09-10T13:19:06Z</time>
      </trkpt>
      <trkpt lat="45.14339" lon="4.2283">
        <ele>811.49</ele>
        <time>2015-09-10T13:19:18Z</time>
      </trkpt>
      <trkpt lat="45.14334" lon="4.2283">
        <ele>810.53</ele>
        <time>2015-09-10T13:19:19Z</time>
      </trkpt>
      <trkpt lat="45.14324" lon="4.22832">
        <ele>809.09</ele>
        <time>2015-09-10T13:19:21Z</time>
      </trkpt>
      <trkpt lat="45.14305" lon="4.22846">
        <ele>805.72</ele>
        <time>2015-09-10T13:19:29Z</time>
      </trkpt>
      <trkpt lat="45.14281" lon="4.22855">
        <ele>802.36</ele>
        <time>2015-09-10T13:19:34Z</time>
      </trkpt>
      <trkpt lat="45.14263" lon="4.22856">
        <ele>799.95</ele>
        <time>2015-09-10T13:19:37Z</time>
      </trkpt>
      <trkpt lat="45.14188" lon="4.22881">
        <ele>789.86</ele>
        <time>2015-09-10T13:19:50Z</time>
      </trkpt>
      <trkpt lat="45.1418" lon="4.22886">
        <ele>788.9</ele>
        <time>2015-09-10T13:19:51Z</time>
      </trkpt>
      <trkpt lat="45.14132" lon="4.22914">
        <ele>784.09</ele>
        <time>2015-09-10T13:19:58Z</time>
      </trkpt>
      <trkpt lat="45.14114" lon="4.22921">
        <ele>781.21</ele>
        <time>2015-09-10T13:20:02Z</time>
      </trkpt>
      <trkpt lat="45.14097" lon="4.22929">
        <ele>781.69</ele>
        <time>2015-09-10T13:20:10Z</time>
      </trkpt>
      <trkpt lat="45.14063" lon="4.22927">
        <ele>787.94</ele>
        <time>2015-09-10T13:20:29Z</time>
      </trkpt>
      <trkpt lat="45.14056" lon="4.22954">
        <ele>786.02</ele>
        <time>2015-09-10T13:20:49Z</time>
      </trkpt>
      <trkpt lat="45.14052" lon="4.22973">
        <ele>782.17</ele>
        <time>2015-09-10T13:21:00Z</time>
      </trkpt>
      <trkpt lat="45.14041" lon="4.23005">
        <ele>776.88</ele>
        <time>2015-09-10T13:21:19Z</time>
      </trkpt>
      <trkpt lat="45.14029" lon="4.23011">
        <ele>779.77</ele>
        <time>2015-09-10T13:21:25Z</time>
      </trkpt>
      <trkpt lat="45.14006" lon="4.23017">
        <ele>791.78</ele>
        <time>2015-09-10T13:21:40Z</time>
      </trkpt>
      <trkpt lat="45.13988" lon="4.23022">
        <ele>798.51</ele>
        <time>2015-09-10T13:21:54Z</time>
      </trkpt>
      <trkpt lat="45.13972" lon="4.23021">
        <ele>798.99</ele>
        <time>2015-09-10T13:22:11Z</time>
      </trkpt>
      <trkpt lat="45.13964" lon="4.23012">
        <ele>800.92</ele>
        <time>2015-09-10T13:22:25Z</time>
      </trkpt>
      <trkpt lat="45.13962" lon="4.23002">
        <ele>806.2</ele>
        <time>2015-09-10T13:22:40Z</time>
      </trkpt>
      <trkpt lat="45.13954" lon="4.22986">
        <ele>810.05</ele>
        <time>2015-09-10T13:22:47Z</time>
      </trkpt>
      <trkpt lat="45.13936" lon="4.22928">
        <ele>817.26</ele>
        <time>2015-09-10T13:23:00Z</time>
      </trkpt>
      <trkpt lat="45.13926" lon="4.22903">
        <ele>818.7</ele>
        <time>2015-09-10T13:23:14Z</time>
      </trkpt>
      <trkpt lat="45.13884" lon="4.22898">
        <ele>817.74</ele>
        <time>2015-09-10T13:23:26Z</time>
      </trkpt>
      <trkpt lat="45.13866" lon="4.229">
        <ele>816.78</ele>
        <time>2015-09-10T13:23:30Z</time>
      </trkpt>
      <trkpt lat="45.13842" lon="4.22905">
        <ele>814.85</ele>
        <time>2015-09-10T13:23:35Z</time>
      </trkpt>
      <trkpt lat="45.13806" lon="4.22912">
        <ele>813.41</ele>
        <time>2015-09-10T13:23:42Z</time>
      </trkpt>
      <trkpt lat="45.13725" lon="4.22919">
        <ele>806.68</ele>
        <time>2015-09-10T13:23:56Z</time>
      </trkpt>
      <trkpt lat="45.13702" lon="4.22929">
        <ele>804.28</ele>
        <time>2015-09-10T13:24:02Z</time>
      </trkpt>
      <trkpt lat="45.13701" lon="4.22924">
        <ele>802.84</ele>
        <time>2015-09-10T13:24:06Z</time>
      </trkpt>
      <trkpt lat="45.13728" lon="4.22921">
        <ele>799.95</ele>
        <time>2015-09-10T13:24:13Z</time>
      </trkpt>
      <trkpt lat="45.13758" lon="4.22904">
        <ele>797.55</ele>
        <time>2015-09-10T13:24:18Z</time>
      </trkpt>
      <trkpt lat="45.13782" lon="4.22868">
        <ele>799.95</ele>
        <time>2015-09-10T13:24:21Z</time>
      </trkpt>
      <trkpt lat="45.13798" lon="4.22811">
        <ele>811.97</ele>
        <time>2015-09-10T13:24:29Z</time>
      </trkpt>
      <trkpt lat="45.13798" lon="4.22808">
        <ele>812.93</ele>
        <time>2015-09-10T13:24:30Z</time>
      </trkpt>
      <trkpt lat="45.1381" lon="4.22775">
        <ele>830.24</ele>
        <time>2015-09-10T13:24:46Z</time>
      </trkpt>
      <trkpt lat="45.1381" lon="4.22762">
        <ele>832.64</ele>
        <time>2015-09-10T13:24:59Z</time>
      </trkpt>
      <trkpt lat="45.138" lon="4.22735">
        <ele>831.2</ele>
        <time>2015-09-10T13:25:15Z</time>
      </trkpt>
      <trkpt lat="45.13794" lon="4.22701">
        <ele>827.83</ele>
        <time>2015-09-10T13:25:33Z</time>
      </trkpt>
      <trkpt lat="45.1379" lon="4.22668">
        <ele>826.87</ele>
        <time>2015-09-10T13:25:49Z</time>
      </trkpt>
      <trkpt lat="45.13792" lon="4.22621">
        <ele>823.03</ele>
        <time>2015-09-10T13:26:12Z</time>
      </trkpt>
      <trkpt lat="45.13798" lon="4.22596">
        <ele>825.43</ele>
        <time>2015-09-10T13:26:29Z</time>
      </trkpt>
      <trkpt lat="45.13809" lon="4.22589">
        <ele>824.47</ele>
        <time>2015-09-10T13:26:45Z</time>
      </trkpt>
      <trkpt lat="45.13831" lon="4.22624">
        <ele>820.14</ele>
        <time>2015-09-10T13:26:58Z</time>
      </trkpt>
      <trkpt lat="45.13865" lon="4.2265">
        <ele>818.7</ele>
        <time>2015-09-10T13:27:20Z</time>
      </trkpt>
      <trkpt lat="45.13867" lon="4.22652">
        <ele>820.14</ele>
        <time>2015-09-10T13:27:24Z</time>
      </trkpt>
      <trkpt lat="45.13881" lon="4.22666">
        <ele>824.95</ele>
        <time>2015-09-10T13:27:35Z</time>
      </trkpt>
      <trkpt lat="45.13891" lon="4.22677">
        <ele>822.06</ele>
        <time>2015-09-10T13:27:42Z</time>
      </trkpt>
      <trkpt lat="45.13908" lon="4.22693">
        <ele>819.18</ele>
        <time>2015-09-10T13:27:49Z</time>
      </trkpt>
      <trkpt lat="45.13927" lon="4.2271">
        <ele>818.7</ele>
        <time>2015-09-10T13:27:53Z</time>
      </trkpt>
      <trkpt lat="45.13958" lon="4.22734">
        <ele>818.7</ele>
        <time>2015-09-10T13:28:01Z</time>
      </trkpt>
      <trkpt lat="45.13987" lon="4.22745">
        <ele>821.1</ele>
        <time>2015-09-10T13:28:10Z</time>
      </trkpt>
      <trkpt lat="45.14007" lon="4.22751">
        <ele>824.47</ele>
        <time>2015-09-10T13:28:19Z</time>
      </trkpt>
      <trkpt lat="45.14047" lon="4.22744">
        <ele>822.55</ele>
        <time>2015-09-10T13:28:28Z</time>
      </trkpt>
      <trkpt lat="45.14075" lon="4.22735">
        <ele>819.18</ele>
        <time>2015-09-10T13:28:38Z</time>
      </trkpt>
      <trkpt lat="45.14097" lon="4.22734">
        <ele>817.74</ele>
        <time>2015-09-10T13:28:49Z</time>
      </trkpt>
      <trkpt lat="45.14121" lon="4.22743">
        <ele>818.7</ele>
        <time>2015-09-10T13:29:03Z</time>
      </trkpt>
      <trkpt lat="45.1414" lon="4.22727">
        <ele>818.7</ele>
        <time>2015-09-10T13:29:15Z</time>
      </trkpt>
      <trkpt lat="45.14142" lon="4.22692">
        <ele>822.06</ele>
        <time>2015-09-10T13:29:31Z</time>
      </trkpt>
      <trkpt lat="45.14162" lon="4.22678">
        <ele>823.99</ele>
        <time>2015-09-10T13:29:47Z</time>
      </trkpt>
      <trkpt lat="45.14178" lon="4.2267">
        <ele>823.51</ele>
        <time>2015-09-10T13:29:59Z</time>
      </trkpt>
      <trkpt lat="45.14195" lon="4.22661">
        <ele>822.06</ele>
        <time>2015-09-10T13:30:12Z</time>
      </trkpt>
      <trkpt lat="45.14219" lon="4.2264">
        <ele>822.55</ele>
        <time>2015-09-10T13:30:30Z</time>
      </trkpt>
      <trkpt lat="45.14237" lon="4.22614">
        <ele>821.1</ele>
        <time>2015-09-10T13:30:50Z</time>
      </trkpt>
      <trkpt lat="45.14256" lon="4.22579">
        <ele>819.66</ele>
        <time>2015-09-10T13:31:11Z</time>
      </trkpt>
      <trkpt lat="45.14261" lon="4.22553">
        <ele>820.14</ele>
        <time>2015-09-10T13:31:27Z</time>
      </trkpt>
      <trkpt lat="45.14268" lon="4.22528">
        <ele>820.14</ele>
        <time>2015-09-10T13:31:41Z</time>
      </trkpt>
      <trkpt lat="45.14268" lon="4.22526">
        <ele>820.14</ele>
        <time>2015-09-10T13:31:42Z</time>
      </trkpt>
      <trkpt lat="45.14279" lon="4.22502">
        <ele>816.3</ele>
        <time>2015-09-10T13:31:59Z</time>
      </trkpt>
      <trkpt lat="45.14279" lon="4.22497">
        <ele>815.82</ele>
        <time>2015-09-10T13:32:03Z</time>
      </trkpt>
      <trkpt lat="45.14293" lon="4.22468">
        <ele>808.61</ele>
        <time>2015-09-10T13:32:20Z</time>
      </trkpt>
      <trkpt lat="45.14309" lon="4.22433">
        <ele>805.24</ele>
        <time>2015-09-10T13:32:28Z</time>
      </trkpt>
      <trkpt lat="45.14325" lon="4.22387">
        <ele>800.44</ele>
        <time>2015-09-10T13:32:34Z</time>
      </trkpt>
      <trkpt lat="45.14364" lon="4.22315">
        <ele>799.47</ele>
        <time>2015-09-10T13:32:44Z</time>
      </trkpt>
      <trkpt lat="45.14364" lon="4.22288">
        <ele>799.47</ele>
        <time>2015-09-10T13:32:48Z</time>
      </trkpt>
      <trkpt lat="45.14372" lon="4.22241">
        <ele>808.13</ele>
        <time>2015-09-10T13:33:00Z</time>
      </trkpt>
      <trkpt lat="45.14385" lon="4.22201">
        <ele>819.18</ele>
        <time>2015-09-10T13:33:18Z</time>
      </trkpt>
      <trkpt lat="45.14383" lon="4.22194">
        <ele>819.66</ele>
        <time>2015-09-10T13:33:22Z</time>
      </trkpt>
      <trkpt lat="45.14372" lon="4.22161">
        <ele>823.03</ele>
        <time>2015-09-10T13:33:39Z</time>
      </trkpt>
      <trkpt lat="45.14357" lon="4.22123">
        <ele>828.31</ele>
        <time>2015-09-10T13:33:58Z</time>
      </trkpt>
      <trkpt lat="45.14338" lon="4.22095">
        <ele>830.24</ele>
        <time>2015-09-10T13:34:16Z</time>
      </trkpt>
      <trkpt lat="45.14314" lon="4.22078">
        <ele>830.24</ele>
        <time>2015-09-10T13:34:35Z</time>
      </trkpt>
      <trkpt lat="45.14303" lon="4.22071">
        <ele>829.27</ele>
        <time>2015-09-10T13:34:44Z</time>
      </trkpt>
      <trkpt lat="45.14273" lon="4.22061">
        <ele>822.55</ele>
        <time>2015-09-10T13:35:03Z</time>
      </trkpt>
      <trkpt lat="45.1425" lon="4.22062">
        <ele>818.22</ele>
        <time>2015-09-10T13:35:22Z</time>
      </trkpt>
      <trkpt lat="45.14235" lon="4.22063">
        <ele>816.3</ele>
        <time>2015-09-10T13:35:31Z</time>
      </trkpt>
      <trkpt lat="45.14223" lon="4.22058">
        <ele>815.34</ele>
        <time>2015-09-10T13:35:40Z</time>
      </trkpt>
      <trkpt lat="45.14227" lon="4.22005">
        <ele>817.26</ele>
        <time>2015-09-10T13:35:53Z</time>
      </trkpt>
      <trkpt lat="45.14232" lon="4.21973">
        <ele>816.3</ele>
        <time>2015-09-10T13:35:57Z</time>
      </trkpt>
      <trkpt lat="45.1422" lon="4.21869">
        <ele>814.37</ele>
        <time>2015-09-10T13:36:09Z</time>
      </trkpt>
      <trkpt lat="45.14221" lon="4.21799">
        <ele>813.41</ele>
        <time>2015-09-10T13:36:19Z</time>
      </trkpt>
      <trkpt lat="45.14235" lon="4.21762">
        <ele>813.89</ele>
        <time>2015-09-10T13:36:24Z</time>
      </trkpt>
      <trkpt lat="45.14259" lon="4.21719">
        <ele>814.85</ele>
        <time>2015-09-10T13:36:35Z</time>
      </trkpt>
      <trkpt lat="45.14268" lon="4.21684">
        <ele>817.26</ele>
        <time>2015-09-10T13:36:53Z</time>
      </trkpt>
      <trkpt lat="45.14277" lon="4.21644">
        <ele>815.82</ele>
        <time>2015-09-10T13:37:12Z</time>
      </trkpt>
      <trkpt lat="45.1428" lon="4.21615">
        <ele>812.93</ele>
        <time>2015-09-10T13:37:26Z</time>
      </trkpt>
      <trkpt lat="45.14274" lon="4.21545">
        <ele>806.2</ele>
        <time>2015-09-10T13:37:42Z</time>
      </trkpt>
      <trkpt lat="45.14254" lon="4.21484">
        <ele>803.32</ele>
        <time>2015-09-10T13:37:54Z</time>
      </trkpt>
      <trkpt lat="45.1421" lon="4.21458">
        <ele>800.44</ele>
        <time>2015-09-10T13:38:05Z</time>
      </trkpt>
      <trkpt lat="45.14207" lon="4.21447">
        <ele>799.47</ele>
        <time>2015-09-10T13:38:10Z</time>
      </trkpt>
      <trkpt lat="45.14212" lon="4.21415">
        <ele>793.71</ele>
        <time>2015-09-10T13:38:26Z</time>
      </trkpt>
      <trkpt lat="45.14217" lon="4.21405">
        <ele>793.22</ele>
        <time>2015-09-10T13:38:30Z</time>
      </trkpt>
      <trkpt lat="45.1428" lon="4.21342">
        <ele>789.38</ele>
        <time>2015-09-10T13:38:47Z</time>
      </trkpt>
      <trkpt lat="45.14347" lon="4.21262">
        <ele>792.26</ele>
        <time>2015-09-10T13:39:03Z</time>
      </trkpt>
      <trkpt lat="45.14402" lon="4.21201">
        <ele>797.07</ele>
        <time>2015-09-10T13:39:15Z</time>
      </trkpt>
      <trkpt lat="45.14433" lon="4.21175">
        <ele>801.4</ele>
        <time>2015-09-10T13:39:27Z</time>
      </trkpt>
      <trkpt lat="45.14443" lon="4.21153">
        <ele>808.61</ele>
        <time>2015-09-10T13:39:39Z</time>
      </trkpt>
      <trkpt lat="45.14438" lon="4.21149">
        <ele>809.09</ele>
        <time>2015-09-10T13:39:43Z</time>
      </trkpt>
      <trkpt lat="45.14428" lon="4.21143">
        <ele>810.53</ele>
        <time>2015-09-10T13:39:53Z</time>
      </trkpt>
      <trkpt lat="45.14409" lon="4.21115">
        <ele>811.49</ele>
        <time>2015-09-10T13:40:06Z</time>
      </trkpt>
      <trkpt lat="45.14422" lon="4.21066">
        <ele>811.49</ele>
        <time>2015-09-10T13:40:18Z</time>
      </trkpt>
      <trkpt lat="45.14435" lon="4.21041">
        <ele>811.01</ele>
        <time>2015-09-10T13:40:24Z</time>
      </trkpt>
      <trkpt lat="45.14444" lon="4.21007">
        <ele>817.74</ele>
        <time>2015-09-10T13:40:34Z</time>
      </trkpt>
      <trkpt lat="45.14441" lon="4.20996">
        <ele>817.26</ele>
        <time>2015-09-10T13:40:39Z</time>
      </trkpt>
      <trkpt lat="45.14444" lon="4.20986">
        <ele>815.82</ele>
        <time>2015-09-10T13:40:45Z</time>
      </trkpt>
      <trkpt lat="45.14446" lon="4.20976">
        <ele>815.34</ele>
        <time>2015-09-10T13:40:50Z</time>
      </trkpt>
      <trkpt lat="45.14465" lon="4.20951">
        <ele>820.14</ele>
        <time>2015-09-10T13:41:06Z</time>
      </trkpt>
      <trkpt lat="45.14466" lon="4.20952">
        <ele>820.14</ele>
        <time>2015-09-10T13:41:13Z</time>
      </trkpt>
      <trkpt lat="45.14471" lon="4.20967">
        <ele>821.1</ele>
        <time>2015-09-10T13:41:26Z</time>
      </trkpt>
      <trkpt lat="45.14477" lon="4.20987">
        <ele>821.58</ele>
        <time>2015-09-10T13:41:40Z</time>
      </trkpt>
      <trkpt lat="45.1448" lon="4.20992">
        <ele>821.58</ele>
        <time>2015-09-10T13:41:44Z</time>
      </trkpt>
      <trkpt lat="45.14503" lon="4.21046">
        <ele>818.22</ele>
        <time>2015-09-10T13:41:55Z</time>
      </trkpt>
      <trkpt lat="45.14515" lon="4.21056">
        <ele>818.7</ele>
        <time>2015-09-10T13:41:59Z</time>
      </trkpt>
      <trkpt lat="45.14522" lon="4.21052">
        <ele>819.66</ele>
        <time>2015-09-10T13:42:04Z</time>
      </trkpt>
      <trkpt lat="45.14523" lon="4.21014">
        <ele>822.06</ele>
        <time>2015-09-10T13:42:20Z</time>
      </trkpt>
      <trkpt lat="45.14511" lon="4.2098">
        <ele>823.03</ele>
        <time>2015-09-10T13:42:39Z</time>
      </trkpt>
      <trkpt lat="45.14503" lon="4.2095">
        <ele>827.35</ele>
        <time>2015-09-10T13:42:58Z</time>
      </trkpt>
      <trkpt lat="45.1449" lon="4.20927">
        <ele>827.35</ele>
        <time>2015-09-10T13:43:13Z</time>
      </trkpt>
      <trkpt lat="45.14467" lon="4.20867">
        <ele>824.47</ele>
        <time>2015-09-10T13:43:28Z</time>
      </trkpt>
      <trkpt lat="45.1444" lon="4.20829">
        <ele>826.39</ele>
        <time>2015-09-10T13:43:40Z</time>
      </trkpt>
      <trkpt lat="45.14413" lon="4.20807">
        <ele>830.72</ele>
        <time>2015-09-10T13:43:54Z</time>
      </trkpt>
      <trkpt lat="45.14413" lon="4.20803">
        <ele>831.2</ele>
        <time>2015-09-10T13:43:56Z</time>
      </trkpt>
      <trkpt lat="45.14416" lon="4.20791">
        <ele>832.16</ele>
        <time>2015-09-10T13:44:02Z</time>
      </trkpt>
      <trkpt lat="45.14439" lon="4.20747">
        <ele>831.68</ele>
        <time>2015-09-10T13:44:26Z</time>
      </trkpt>
      <trkpt lat="45.14459" lon="4.20709">
        <ele>828.79</ele>
        <time>2015-09-10T13:44:50Z</time>
      </trkpt>
      <trkpt lat="45.14462" lon="4.20677">
        <ele>831.2</ele>
        <time>2015-09-10T13:45:05Z</time>
      </trkpt>
      <trkpt lat="45.14473" lon="4.20639">
        <ele>831.68</ele>
        <time>2015-09-10T13:45:21Z</time>
      </trkpt>
      <trkpt lat="45.14477" lon="4.20624">
        <ele>832.16</ele>
        <time>2015-09-10T13:45:24Z</time>
      </trkpt>
      <trkpt lat="45.14478" lon="4.2059">
        <ele>832.16</ele>
        <time>2015-09-10T13:45:29Z</time>
      </trkpt>
      <trkpt lat="45.145" lon="4.20563">
        <ele>834.56</ele>
        <time>2015-09-10T13:45:36Z</time>
      </trkpt>
      <trkpt lat="45.14533" lon="4.20551">
        <ele>836.48</ele>
        <time>2015-09-10T13:45:42Z</time>
      </trkpt>
      <trkpt lat="45.14565" lon="4.20523">
        <ele>838.89</ele>
        <time>2015-09-10T13:45:49Z</time>
      </trkpt>
      <trkpt lat="45.1458" lon="4.20514">
        <ele>839.85</ele>
        <time>2015-09-10T13:45:52Z</time>
      </trkpt>
      <trkpt lat="45.14623" lon="4.20483">
        <ele>843.69</ele>
        <time>2015-09-10T13:46:04Z</time>
      </trkpt>
      <trkpt lat="45.14655" lon="4.20469">
        <ele>846.1</ele>
        <time>2015-09-10T13:46:23Z</time>
      </trkpt>
      <trkpt lat="45.14708" lon="4.20468">
        <ele>846.58</ele>
        <time>2015-09-10T13:46:33Z</time>
      </trkpt>
      <trkpt lat="45.14756" lon="4.20468">
        <ele>846.58</ele>
        <time>2015-09-10T13:46:41Z</time>
      </trkpt>
      <trkpt lat="45.14796" lon="4.20499">
        <ele>846.1</ele>
        <time>2015-09-10T13:46:49Z</time>
      </trkpt>
      <trkpt lat="45.14806" lon="4.20518">
        <ele>845.62</ele>
        <time>2015-09-10T13:46:52Z</time>
      </trkpt>
      <trkpt lat="45.14819" lon="4.2056">
        <ele>845.62</ele>
        <time>2015-09-10T13:46:57Z</time>
      </trkpt>
      <trkpt lat="45.14826" lon="4.2059">
        <ele>845.62</ele>
        <time>2015-09-10T13:47:01Z</time>
      </trkpt>
      <trkpt lat="45.14844" lon="4.20622">
        <ele>845.62</ele>
        <time>2015-09-10T13:47:06Z</time>
      </trkpt>
      <trkpt lat="45.14893" lon="4.20672">
        <ele>840.81</ele>
        <time>2015-09-10T13:47:19Z</time>
      </trkpt>
      <trkpt lat="45.14894" lon="4.20673">
        <ele>840.33</ele>
        <time>2015-09-10T13:47:20Z</time>
      </trkpt>
      <trkpt lat="45.14908" lon="4.20689">
        <ele>838.41</ele>
        <time>2015-09-10T13:47:33Z</time>
      </trkpt>
      <trkpt lat="45.14927" lon="4.20714">
        <ele>835.04</ele>
        <time>2015-09-10T13:47:49Z</time>
      </trkpt>
      <trkpt lat="45.14935" lon="4.2074">
        <ele>832.64</ele>
        <time>2015-09-10T13:48:03Z</time>
      </trkpt>
      <trkpt lat="45.14943" lon="4.20768">
        <ele>830.72</ele>
        <time>2015-09-10T13:48:17Z</time>
      </trkpt>
      <trkpt lat="45.14951" lon="4.20799">
        <ele>829.76</ele>
        <time>2015-09-10T13:48:31Z</time>
      </trkpt>
      <trkpt lat="45.14952" lon="4.20807">
        <ele>829.27</ele>
        <time>2015-09-10T13:48:35Z</time>
      </trkpt>
      <trkpt lat="45.14953" lon="4.20817">
        <ele>828.31</ele>
        <time>2015-09-10T13:48:40Z</time>
      </trkpt>
      <trkpt lat="45.14954" lon="4.20852">
        <ele>826.39</ele>
        <time>2015-09-10T13:48:56Z</time>
      </trkpt>
      <trkpt lat="45.14952" lon="4.20868">
        <ele>826.39</ele>
        <time>2015-09-10T13:49:04Z</time>
      </trkpt>
      <trkpt lat="45.14951" lon="4.20877">
        <ele>825.91</ele>
        <time>2015-09-10T13:49:09Z</time>
      </trkpt>
      <trkpt lat="45.14945" lon="4.2091">
        <ele>823.03</ele>
        <time>2015-09-10T13:49:26Z</time>
      </trkpt>
      <trkpt lat="45.14947" lon="4.20939">
        <ele>822.55</ele>
        <time>2015-09-10T13:49:41Z</time>
      </trkpt>
      <trkpt lat="45.14964" lon="4.20966">
        <ele>823.51</ele>
        <time>2015-09-10T13:49:58Z</time>
      </trkpt>
      <trkpt lat="45.14984" lon="4.2098">
        <ele>823.03</ele>
        <time>2015-09-10T13:50:13Z</time>
      </trkpt>
      <trkpt lat="45.15006" lon="4.20996">
        <ele>823.51</ele>
        <time>2015-09-10T13:50:31Z</time>
      </trkpt>
      <trkpt lat="45.15024" lon="4.21012">
        <ele>823.51</ele>
        <time>2015-09-10T13:50:48Z</time>
      </trkpt>
      <trkpt lat="45.15035" lon="4.21022">
        <ele>823.03</ele>
        <time>2015-09-10T13:51:01Z</time>
      </trkpt>
      <trkpt lat="45.15056" lon="4.21037">
        <ele>823.03</ele>
        <time>2015-09-10T13:51:15Z</time>
      </trkpt>
      <trkpt lat="45.15056" lon="4.2104">
        <ele>822.55</ele>
        <time>2015-09-10T13:51:17Z</time>
      </trkpt>
      <trkpt lat="45.1507" lon="4.21053">
        <ele>821.1</ele>
        <time>2015-09-10T13:51:31Z</time>
      </trkpt>
      <trkpt lat="45.15073" lon="4.21055">
        <ele>820.62</ele>
        <time>2015-09-10T13:51:33Z</time>
      </trkpt>
      <trkpt lat="45.1508" lon="4.21083">
        <ele>818.22</ele>
        <time>2015-09-10T13:51:49Z</time>
      </trkpt>
      <trkpt lat="45.15074" lon="4.21098">
        <ele>815.82</ele>
        <time>2015-09-10T13:52:00Z</time>
      </trkpt>
      <trkpt lat="45.15051" lon="4.21121">
        <ele>818.22</ele>
        <time>2015-09-10T13:52:19Z</time>
      </trkpt>
      <trkpt lat="45.15028" lon="4.21137">
        <ele>817.26</ele>
        <time>2015-09-10T13:52:38Z</time>
      </trkpt>
      <trkpt lat="45.15007" lon="4.21158">
        <ele>816.78</ele>
        <time>2015-09-10T13:52:57Z</time>
      </trkpt>
      <trkpt lat="45.14987" lon="4.21182">
        <ele>817.26</ele>
        <time>2015-09-10T13:53:16Z</time>
      </trkpt>
      <trkpt lat="45.14972" lon="4.21203">
        <ele>816.78</ele>
        <time>2015-09-10T13:53:31Z</time>
      </trkpt>
      <trkpt lat="45.14959" lon="4.21231">
        <ele>816.3</ele>
        <time>2015-09-10T13:53:48Z</time>
      </trkpt>
      <trkpt lat="45.14947" lon="4.21258">
        <ele>815.82</ele>
        <time>2015-09-10T13:54:04Z</time>
      </trkpt>
      <trkpt lat="45.14937" lon="4.21287">
        <ele>815.34</ele>
        <time>2015-09-10T13:54:20Z</time>
      </trkpt>
      <trkpt lat="45.14927" lon="4.21315">
        <ele>815.34</ele>
        <time>2015-09-10T13:54:37Z</time>
      </trkpt>
      <trkpt lat="45.14921" lon="4.21342">
        <ele>816.3</ele>
        <time>2015-09-10T13:54:53Z</time>
      </trkpt>
      <trkpt lat="45.14917" lon="4.21371">
        <ele>816.3</ele>
        <time>2015-09-10T13:55:09Z</time>
      </trkpt>
      <trkpt lat="45.14916" lon="4.21401">
        <ele>815.82</ele>
        <time>2015-09-10T13:55:26Z</time>
      </trkpt>
      <trkpt lat="45.14921" lon="4.2143">
        <ele>816.3</ele>
        <time>2015-09-10T13:55:42Z</time>
      </trkpt>
      <trkpt lat="45.14932" lon="4.21461">
        <ele>815.82</ele>
        <time>2015-09-10T13:56:00Z</time>
      </trkpt>
      <trkpt lat="45.14942" lon="4.21488">
        <ele>815.82</ele>
        <time>2015-09-10T13:56:16Z</time>
      </trkpt>
      <trkpt lat="45.14951" lon="4.21513">
        <ele>816.3</ele>
        <time>2015-09-10T13:56:31Z</time>
      </trkpt>
      <trkpt lat="45.14961" lon="4.21538">
        <ele>815.34</ele>
        <time>2015-09-10T13:56:46Z</time>
      </trkpt>
      <trkpt lat="45.14971" lon="4.21564">
        <ele>814.85</ele>
        <time>2015-09-10T13:57:02Z</time>
      </trkpt>
      <trkpt lat="45.14981" lon="4.21593">
        <ele>814.37</ele>
        <time>2015-09-10T13:57:19Z</time>
      </trkpt>
      <trkpt lat="45.14994" lon="4.2162">
        <ele>815.34</ele>
        <time>2015-09-10T13:57:35Z</time>
      </trkpt>
      <trkpt lat="45.14993" lon="4.21626">
        <ele>815.34</ele>
        <time>2015-09-10T13:57:42Z</time>
      </trkpt>
      <trkpt lat="45.14994" lon="4.21634">
        <ele>815.34</ele>
        <time>2015-09-10T13:57:56Z</time>
      </trkpt>
      <trkpt lat="45.14995" lon="4.21635">
        <ele>815.34</ele>
        <time>2015-09-10T13:57:57Z</time>
      </trkpt>
      <trkpt lat="45.15012" lon="4.2165">
        <ele>818.22</ele>
        <time>2015-09-10T13:58:14Z</time>
      </trkpt>
      <trkpt lat="45.1502" lon="4.21663">
        <ele>817.26</ele>
        <time>2015-09-10T13:58:27Z</time>
      </trkpt>
      <trkpt lat="45.15026" lon="4.21671">
        <ele>818.22</ele>
        <time>2015-09-10T13:58:35Z</time>
      </trkpt>
      <trkpt lat="45.15025" lon="4.21676">
        <ele>817.74</ele>
        <time>2015-09-10T13:58:41Z</time>
      </trkpt>
      <trkpt lat="45.15014" lon="4.21675">
        <ele>819.18</ele>
        <time>2015-09-10T13:58:50Z</time>
      </trkpt>
      <trkpt lat="45.14993" lon="4.2168">
        <ele>816.78</ele>
        <time>2015-09-10T13:59:07Z</time>
      </trkpt>
      <trkpt lat="45.14975" lon="4.21687">
        <ele>818.22</ele>
        <time>2015-09-10T13:59:24Z</time>
      </trkpt>
      <trkpt lat="45.14973" lon="4.21692">
        <ele>817.74</ele>
        <time>2015-09-10T13:59:28Z</time>
      </trkpt>
      <trkpt lat="45.14975" lon="4.21713">
        <ele>816.3</ele>
        <time>2015-09-10T13:59:39Z</time>
      </trkpt>
      <trkpt lat="45.14991" lon="4.21713">
        <ele>819.66</ele>
        <time>2015-09-10T13:59:53Z</time>
      </trkpt>
      <trkpt lat="45.14994" lon="4.21713">
        <ele>819.18</ele>
        <time>2015-09-10T13:59:57Z</time>
      </trkpt>
      <trkpt lat="45.15006" lon="4.21722">
        <ele>819.66</ele>
        <time>2015-09-10T14:00:10Z</time>
      </trkpt>
      <trkpt lat="45.15021" lon="4.21739">
        <ele>825.43</ele>
        <time>2015-09-10T14:00:24Z</time>
      </trkpt>
      <trkpt lat="45.15023" lon="4.21743">
        <ele>827.35</ele>
        <time>2015-09-10T14:00:28Z</time>
      </trkpt>
      <trkpt lat="45.15026" lon="4.2175">
        <ele>828.31</ele>
        <time>2015-09-10T14:00:33Z</time>
      </trkpt>
      <trkpt lat="45.15043" lon="4.21744">
        <ele>828.79</ele>
        <time>2015-09-10T14:00:48Z</time>
      </trkpt>
      <trkpt lat="45.1506" lon="4.21733">
        <ele>827.83</ele>
        <time>2015-09-10T14:01:03Z</time>
      </trkpt>
      <trkpt lat="45.15074" lon="4.21741">
        <ele>824.95</ele>
        <time>2015-09-10T14:01:16Z</time>
      </trkpt>
      <trkpt lat="45.15091" lon="4.21751">
        <ele>821.58</ele>
        <time>2015-09-10T14:01:31Z</time>
      </trkpt>
      <trkpt lat="45.15097" lon="4.21752">
        <ele>820.62</ele>
        <time>2015-09-10T14:01:35Z</time>
      </trkpt>
      <trkpt lat="45.15114" lon="4.21756">
        <ele>818.7</ele>
        <time>2015-09-10T14:01:48Z</time>
      </trkpt>
      <trkpt lat="45.15119" lon="4.21762">
        <ele>817.26</ele>
        <time>2015-09-10T14:02:07Z</time>
      </trkpt>
      <trkpt lat="45.15121" lon="4.21761">
        <ele>816.78</ele>
        <time>2015-09-10T14:02:10Z</time>
      </trkpt>
      <trkpt lat="45.15145" lon="4.21752">
        <ele>817.74</ele>
        <time>2015-09-10T14:02:28Z</time>
      </trkpt>
      <trkpt lat="45.15156" lon="4.21757">
        <ele>818.7</ele>
        <time>2015-09-10T14:02:37Z</time>
      </trkpt>
      <trkpt lat="45.1516" lon="4.21759">
        <ele>817.74</ele>
        <time>2015-09-10T14:02:41Z</time>
      </trkpt>
      <trkpt lat="45.15177" lon="4.21772">
        <ele>816.3</ele>
        <time>2015-09-10T14:02:59Z</time>
      </trkpt>
      <trkpt lat="45.15184" lon="4.21785">
        <ele>818.22</ele>
        <time>2015-09-10T14:03:19Z</time>
      </trkpt>
      <trkpt lat="45.15188" lon="4.2179">
        <ele>819.18</ele>
        <time>2015-09-10T14:03:27Z</time>
      </trkpt>
      <trkpt lat="45.15182" lon="4.2178">
        <ele>820.14</ele>
        <time>2015-09-10T14:03:36Z</time>
      </trkpt>
      <trkpt lat="45.15182" lon="4.21771">
        <ele>821.1</ele>
        <time>2015-09-10T14:03:41Z</time>
      </trkpt>
      <trkpt lat="45.15184" lon="4.21762">
        <ele>821.1</ele>
        <time>2015-09-10T14:03:47Z</time>
      </trkpt>
      <trkpt lat="45.15186" lon="4.21755">
        <ele>821.58</ele>
        <time>2015-09-10T14:03:51Z</time>
      </trkpt>
      <trkpt lat="45.15199" lon="4.21737">
        <ele>821.58</ele>
        <time>2015-09-10T14:04:05Z</time>
      </trkpt>
      <trkpt lat="45.15204" lon="4.21734">
        <ele>822.06</ele>
        <time>2015-09-10T14:04:09Z</time>
      </trkpt>
      <trkpt lat="45.15219" lon="4.21741">
        <ele>822.55</ele>
        <time>2015-09-10T14:04:21Z</time>
      </trkpt>
      <trkpt lat="45.15234" lon="4.21759">
        <ele>823.51</ele>
        <time>2015-09-10T14:04:25Z</time>
      </trkpt>
      <trkpt lat="45.15275" lon="4.2179">
        <ele>829.76</ele>
        <time>2015-09-10T14:04:37Z</time>
      </trkpt>
      <trkpt lat="45.15286" lon="4.21799">
        <ele>833.6</ele>
        <time>2015-09-10T14:04:48Z</time>
      </trkpt>
      <trkpt lat="45.15286" lon="4.2181">
        <ele>834.56</ele>
        <time>2015-09-10T14:04:57Z</time>
      </trkpt>
      <trkpt lat="45.15297" lon="4.21824">
        <ele>835.04</ele>
        <time>2015-09-10T14:05:02Z</time>
      </trkpt>
      <trkpt lat="45.15311" lon="4.21836">
        <ele>835.52</ele>
        <time>2015-09-10T14:05:05Z</time>
      </trkpt>
      <trkpt lat="45.15323" lon="4.21852">
        <ele>837.93</ele>
        <time>2015-09-10T14:05:14Z</time>
      </trkpt>
      <trkpt lat="45.15324" lon="4.21852">
        <ele>838.41</ele>
        <time>2015-09-10T14:05:15Z</time>
      </trkpt>
      <trkpt lat="45.1532" lon="4.21876">
        <ele>837.45</ele>
        <time>2015-09-10T14:05:32Z</time>
      </trkpt>
      <trkpt lat="45.15329" lon="4.2188">
        <ele>837.93</ele>
        <time>2015-09-10T14:05:37Z</time>
      </trkpt>
      <trkpt lat="45.15352" lon="4.21905">
        <ele>838.89</ele>
        <time>2015-09-10T14:05:43Z</time>
      </trkpt>
      <trkpt lat="45.15393" lon="4.21944">
        <ele>843.69</ele>
        <time>2015-09-10T14:05:53Z</time>
      </trkpt>
      <trkpt lat="45.15412" lon="4.21953">
        <ele>846.58</ele>
        <time>2015-09-10T14:06:09Z</time>
      </trkpt>
      <trkpt lat="45.15417" lon="4.21958">
        <ele>847.06</ele>
        <time>2015-09-10T14:06:14Z</time>
      </trkpt>
      <trkpt lat="45.15435" lon="4.21991">
        <ele>849.94</ele>
        <time>2015-09-10T14:06:35Z</time>
      </trkpt>
      <trkpt lat="45.15454" lon="4.21997">
        <ele>852.35</ele>
        <time>2015-09-10T14:06:55Z</time>
      </trkpt>
    </trkseg>
  </trk>
</gpx>